<?xml version="1.0" encoding="UTF-8" standalone="no" ?>
<gpx xmlns="http://www.topografix.com/GPX/1/1" xmlns:xsi="http://www.w3.org/2001/XMLSchema-instance" xsi:schemaLocation="http://www.topografix.com/GPX/1/1 http://www.topografix.com/GPX/1/1/gpx.xsd" version="1.1" creator="VisuGPX - https://www.visugpx.com">
  <metadata>
    <name>2022-06-27 14:09</name>
    <desc><![CDATA[File with points/tracks from Locus Map/4.10.0]]></desc>
  </metadata>
  <trk>
    <name><![CDATA[2022-06-27 14:09]]></name>
    <extensions>
      <line xmlns="http://www.topografix.com/GPX/gpx_style/0/2">
        <color>0000FF</color>
        <opacity>0.59</opacity>
        <width>6.0</width>
      </line>
    </extensions>
    <trkseg>
      <trkpt lat="49.61406" lon="3.80757">
        <ele>76.05</ele>
        <time>2022-06-27T12:09:07.000Z</time>
      </trkpt>
      <trkpt lat="49.61407" lon="3.80757">
        <ele>73.35</ele>
        <time>2022-06-27T12:09:34.000Z</time>
      </trkpt>
      <trkpt lat="49.61416" lon="3.80761">
        <ele>73.35</ele>
        <time>2022-06-27T12:09:44.000Z</time>
      </trkpt>
      <trkpt lat="49.61424" lon="3.80773">
        <ele>73.45</ele>
        <time>2022-06-27T12:09:54.000Z</time>
      </trkpt>
      <trkpt lat="49.61425" lon="3.80784">
        <ele>73.36</ele>
        <time>2022-06-27T12:10:04.000Z</time>
      </trkpt>
      <trkpt lat="49.6143" lon="3.80796">
        <ele>73.35</ele>
        <time>2022-06-27T12:10:14.000Z</time>
      </trkpt>
      <trkpt lat="49.6144" lon="3.80802">
        <ele>73.45</ele>
        <time>2022-06-27T12:10:24.000Z</time>
      </trkpt>
      <trkpt lat="49.61454" lon="3.80812">
        <ele>73.45</ele>
        <time>2022-06-27T12:10:34.000Z</time>
      </trkpt>
      <trkpt lat="49.61463" lon="3.80821">
        <ele>73.45</ele>
        <time>2022-06-27T12:10:44.000Z</time>
      </trkpt>
      <trkpt lat="49.61471" lon="3.80834">
        <ele>73.45</ele>
        <time>2022-06-27T12:10:54.000Z</time>
      </trkpt>
      <trkpt lat="49.61479" lon="3.80844">
        <ele>73.45</ele>
        <time>2022-06-27T12:11:04.000Z</time>
      </trkpt>
      <trkpt lat="49.61486" lon="3.80854">
        <ele>73.45</ele>
        <time>2022-06-27T12:11:14.000Z</time>
      </trkpt>
      <trkpt lat="49.61495" lon="3.80862">
        <ele>73.45</ele>
        <time>2022-06-27T12:11:24.000Z</time>
      </trkpt>
      <trkpt lat="49.61505" lon="3.80858">
        <ele>73.45</ele>
        <time>2022-06-27T12:11:34.000Z</time>
      </trkpt>
      <trkpt lat="49.61515" lon="3.80846">
        <ele>73.45</ele>
        <time>2022-06-27T12:11:44.000Z</time>
      </trkpt>
      <trkpt lat="49.61522" lon="3.80834">
        <ele>73.45</ele>
        <time>2022-06-27T12:11:54.000Z</time>
      </trkpt>
      <trkpt lat="49.6153" lon="3.8082">
        <ele>73.45</ele>
        <time>2022-06-27T12:12:04.000Z</time>
      </trkpt>
      <trkpt lat="49.61543" lon="3.80828">
        <ele>85.08</ele>
        <time>2022-06-27T12:12:14.000Z</time>
      </trkpt>
      <trkpt lat="49.61553" lon="3.80841">
        <ele>85.19</ele>
        <time>2022-06-27T12:12:24.000Z</time>
      </trkpt>
      <trkpt lat="49.61559" lon="3.80856">
        <ele>85.06</ele>
        <time>2022-06-27T12:12:34.000Z</time>
      </trkpt>
      <trkpt lat="49.61563" lon="3.8087">
        <ele>84.76</ele>
        <time>2022-06-27T12:12:44.000Z</time>
      </trkpt>
      <trkpt lat="49.61569" lon="3.80885">
        <ele>84.69</ele>
        <time>2022-06-27T12:12:54.000Z</time>
      </trkpt>
      <trkpt lat="49.61576" lon="3.80902">
        <ele>84.77</ele>
        <time>2022-06-27T12:13:04.000Z</time>
      </trkpt>
      <trkpt lat="49.61585" lon="3.80909">
        <ele>85.13</ele>
        <time>2022-06-27T12:13:14.000Z</time>
      </trkpt>
      <trkpt lat="49.61594" lon="3.80911">
        <ele>85.74</ele>
        <time>2022-06-27T12:13:24.000Z</time>
      </trkpt>
      <trkpt lat="49.61603" lon="3.80909">
        <ele>86.24</ele>
        <time>2022-06-27T12:13:34.000Z</time>
      </trkpt>
      <trkpt lat="49.61614" lon="3.80906">
        <ele>86.24</ele>
        <time>2022-06-27T12:13:44.000Z</time>
      </trkpt>
      <trkpt lat="49.61626" lon="3.80894">
        <ele>86.04</ele>
        <time>2022-06-27T12:13:54.000Z</time>
      </trkpt>
      <trkpt lat="49.61637" lon="3.8089">
        <ele>85.79</ele>
        <time>2022-06-27T12:14:04.000Z</time>
      </trkpt>
      <trkpt lat="49.61646" lon="3.80885">
        <ele>85.37</ele>
        <time>2022-06-27T12:14:14.000Z</time>
      </trkpt>
      <trkpt lat="49.61658" lon="3.80886">
        <ele>84.88</ele>
        <time>2022-06-27T12:14:24.000Z</time>
      </trkpt>
      <trkpt lat="49.61669" lon="3.80883">
        <ele>84.77</ele>
        <time>2022-06-27T12:14:34.000Z</time>
      </trkpt>
      <trkpt lat="49.61678" lon="3.80879">
        <ele>84.54</ele>
        <time>2022-06-27T12:14:44.000Z</time>
      </trkpt>
      <trkpt lat="49.61686" lon="3.8087">
        <ele>84.27</ele>
        <time>2022-06-27T12:14:54.000Z</time>
      </trkpt>
      <trkpt lat="49.61697" lon="3.80863">
        <ele>84.11</ele>
        <time>2022-06-27T12:15:04.000Z</time>
      </trkpt>
      <trkpt lat="49.61708" lon="3.8086">
        <ele>83.81</ele>
        <time>2022-06-27T12:15:14.000Z</time>
      </trkpt>
      <trkpt lat="49.61721" lon="3.80856">
        <ele>83.25</ele>
        <time>2022-06-27T12:15:24.000Z</time>
      </trkpt>
      <trkpt lat="49.61733" lon="3.80854">
        <ele>82.78</ele>
        <time>2022-06-27T12:15:34.000Z</time>
      </trkpt>
      <trkpt lat="49.61743" lon="3.80853">
        <ele>82.52</ele>
        <time>2022-06-27T12:15:44.000Z</time>
      </trkpt>
      <trkpt lat="49.61756" lon="3.80855">
        <ele>82.69</ele>
        <time>2022-06-27T12:15:54.000Z</time>
      </trkpt>
      <trkpt lat="49.61767" lon="3.80855">
        <ele>83.06</ele>
        <time>2022-06-27T12:16:04.000Z</time>
      </trkpt>
      <trkpt lat="49.61778" lon="3.80861">
        <ele>83.29</ele>
        <time>2022-06-27T12:16:14.000Z</time>
      </trkpt>
      <trkpt lat="49.61789" lon="3.80869">
        <ele>83.67</ele>
        <time>2022-06-27T12:16:24.000Z</time>
      </trkpt>
      <trkpt lat="49.618" lon="3.80871">
        <ele>84.41</ele>
        <time>2022-06-27T12:16:34.000Z</time>
      </trkpt>
      <trkpt lat="49.61812" lon="3.80879">
        <ele>85.16</ele>
        <time>2022-06-27T12:16:44.000Z</time>
      </trkpt>
      <trkpt lat="49.61819" lon="3.80887">
        <ele>85.98</ele>
        <time>2022-06-27T12:16:54.000Z</time>
      </trkpt>
      <trkpt lat="49.61831" lon="3.8089">
        <ele>86.68</ele>
        <time>2022-06-27T12:17:04.000Z</time>
      </trkpt>
      <trkpt lat="49.61843" lon="3.80889">
        <ele>87.44</ele>
        <time>2022-06-27T12:17:14.000Z</time>
      </trkpt>
      <trkpt lat="49.61854" lon="3.80889">
        <ele>87.67</ele>
        <time>2022-06-27T12:17:24.000Z</time>
      </trkpt>
      <trkpt lat="49.61866" lon="3.8089">
        <ele>87.61</ele>
        <time>2022-06-27T12:17:34.000Z</time>
      </trkpt>
      <trkpt lat="49.61876" lon="3.8089">
        <ele>87.61</ele>
        <time>2022-06-27T12:17:44.000Z</time>
      </trkpt>
      <trkpt lat="49.61887" lon="3.8089">
        <ele>87.61</ele>
        <time>2022-06-27T12:17:54.000Z</time>
      </trkpt>
      <trkpt lat="49.619" lon="3.80893">
        <ele>87.61</ele>
        <time>2022-06-27T12:18:04.000Z</time>
      </trkpt>
      <trkpt lat="49.61912" lon="3.80898">
        <ele>87.42</ele>
        <time>2022-06-27T12:18:14.000Z</time>
      </trkpt>
      <trkpt lat="49.61922" lon="3.80898">
        <ele>86.93</ele>
        <time>2022-06-27T12:18:24.000Z</time>
      </trkpt>
      <trkpt lat="49.61934" lon="3.80901">
        <ele>86.71</ele>
        <time>2022-06-27T12:18:34.000Z</time>
      </trkpt>
      <trkpt lat="49.61945" lon="3.80912">
        <ele>87.22</ele>
        <time>2022-06-27T12:18:44.000Z</time>
      </trkpt>
      <trkpt lat="49.61956" lon="3.80915">
        <ele>87.84</ele>
        <time>2022-06-27T12:18:54.000Z</time>
      </trkpt>
      <trkpt lat="49.6196" lon="3.80925">
        <ele>88.07</ele>
        <time>2022-06-27T12:19:04.000Z</time>
      </trkpt>
      <trkpt lat="49.61969" lon="3.80929">
        <ele>88.12</ele>
        <time>2022-06-27T12:19:14.000Z</time>
      </trkpt>
      <trkpt lat="49.61983" lon="3.80941">
        <ele>87.4</ele>
        <time>2022-06-27T12:19:25.000Z</time>
      </trkpt>
      <trkpt lat="49.61993" lon="3.80952">
        <ele>87.06</ele>
        <time>2022-06-27T12:19:35.000Z</time>
      </trkpt>
      <trkpt lat="49.62001" lon="3.80966">
        <ele>87</ele>
        <time>2022-06-27T12:19:45.000Z</time>
      </trkpt>
      <trkpt lat="49.62011" lon="3.80976">
        <ele>86.91</ele>
        <time>2022-06-27T12:19:55.000Z</time>
      </trkpt>
      <trkpt lat="49.6202" lon="3.8099">
        <ele>86.76</ele>
        <time>2022-06-27T12:20:05.000Z</time>
      </trkpt>
      <trkpt lat="49.62027" lon="3.81005">
        <ele>86.66</ele>
        <time>2022-06-27T12:20:15.000Z</time>
      </trkpt>
      <trkpt lat="49.62033" lon="3.81019">
        <ele>86.41</ele>
        <time>2022-06-27T12:20:25.000Z</time>
      </trkpt>
      <trkpt lat="49.62038" lon="3.81041">
        <ele>86.4</ele>
        <time>2022-06-27T12:20:35.000Z</time>
      </trkpt>
      <trkpt lat="49.62042" lon="3.81059">
        <ele>86.26</ele>
        <time>2022-06-27T12:20:45.000Z</time>
      </trkpt>
      <trkpt lat="49.62047" lon="3.81075">
        <ele>85.72</ele>
        <time>2022-06-27T12:20:55.000Z</time>
      </trkpt>
      <trkpt lat="49.6205" lon="3.81091">
        <ele>85.43</ele>
        <time>2022-06-27T12:21:05.000Z</time>
      </trkpt>
      <trkpt lat="49.62059" lon="3.81108">
        <ele>85.57</ele>
        <time>2022-06-27T12:21:15.000Z</time>
      </trkpt>
      <trkpt lat="49.62068" lon="3.81119">
        <ele>85.9</ele>
        <time>2022-06-27T12:21:25.000Z</time>
      </trkpt>
      <trkpt lat="49.62078" lon="3.81136">
        <ele>86.02</ele>
        <time>2022-06-27T12:21:35.000Z</time>
      </trkpt>
      <trkpt lat="49.62087" lon="3.81148">
        <ele>86.07</ele>
        <time>2022-06-27T12:21:45.000Z</time>
      </trkpt>
      <trkpt lat="49.62101" lon="3.81164">
        <ele>85.88</ele>
        <time>2022-06-27T12:21:55.000Z</time>
      </trkpt>
      <trkpt lat="49.62109" lon="3.81178">
        <ele>85.86</ele>
        <time>2022-06-27T12:22:05.000Z</time>
      </trkpt>
      <trkpt lat="49.62113" lon="3.81189">
        <ele>85.77</ele>
        <time>2022-06-27T12:22:15.000Z</time>
      </trkpt>
      <trkpt lat="49.62122" lon="3.81204">
        <ele>86.05</ele>
        <time>2022-06-27T12:22:25.000Z</time>
      </trkpt>
      <trkpt lat="49.62132" lon="3.81217">
        <ele>86.71</ele>
        <time>2022-06-27T12:22:35.000Z</time>
      </trkpt>
      <trkpt lat="49.62142" lon="3.81227">
        <ele>87.12</ele>
        <time>2022-06-27T12:22:45.000Z</time>
      </trkpt>
      <trkpt lat="49.62155" lon="3.81227">
        <ele>86.8</ele>
        <time>2022-06-27T12:22:55.000Z</time>
      </trkpt>
      <trkpt lat="49.62162" lon="3.81219">
        <ele>86.19</ele>
        <time>2022-06-27T12:23:05.000Z</time>
      </trkpt>
      <trkpt lat="49.62173" lon="3.81212">
        <ele>85.89</ele>
        <time>2022-06-27T12:23:15.000Z</time>
      </trkpt>
      <trkpt lat="49.62184" lon="3.81208">
        <ele>86</ele>
        <time>2022-06-27T12:23:25.000Z</time>
      </trkpt>
      <trkpt lat="49.62196" lon="3.81204">
        <ele>86.17</ele>
        <time>2022-06-27T12:23:35.000Z</time>
      </trkpt>
      <trkpt lat="49.62211" lon="3.81199">
        <ele>85.79</ele>
        <time>2022-06-27T12:23:45.000Z</time>
      </trkpt>
      <trkpt lat="49.62221" lon="3.81194">
        <ele>85.37</ele>
        <time>2022-06-27T12:23:55.000Z</time>
      </trkpt>
      <trkpt lat="49.62234" lon="3.81186">
        <ele>84.68</ele>
        <time>2022-06-27T12:24:05.000Z</time>
      </trkpt>
      <trkpt lat="49.62247" lon="3.8118">
        <ele>83.94</ele>
        <time>2022-06-27T12:24:15.000Z</time>
      </trkpt>
      <trkpt lat="49.62259" lon="3.81171">
        <ele>83.07</ele>
        <time>2022-06-27T12:24:25.000Z</time>
      </trkpt>
      <trkpt lat="49.62271" lon="3.81163">
        <ele>81.96</ele>
        <time>2022-06-27T12:24:35.000Z</time>
      </trkpt>
      <trkpt lat="49.6228" lon="3.81157">
        <ele>81.09</ele>
        <time>2022-06-27T12:24:45.000Z</time>
      </trkpt>
      <trkpt lat="49.62293" lon="3.81144">
        <ele>80.46</ele>
        <time>2022-06-27T12:24:56.000Z</time>
      </trkpt>
      <trkpt lat="49.62304" lon="3.81138">
        <ele>80.22</ele>
        <time>2022-06-27T12:25:06.000Z</time>
      </trkpt>
      <trkpt lat="49.62315" lon="3.81132">
        <ele>80.06</ele>
        <time>2022-06-27T12:25:16.000Z</time>
      </trkpt>
      <trkpt lat="49.62323" lon="3.81124">
        <ele>79.77</ele>
        <time>2022-06-27T12:25:26.000Z</time>
      </trkpt>
      <trkpt lat="49.62334" lon="3.8112">
        <ele>79.3</ele>
        <time>2022-06-27T12:25:36.000Z</time>
      </trkpt>
      <trkpt lat="49.62348" lon="3.81115">
        <ele>79.14</ele>
        <time>2022-06-27T12:25:46.000Z</time>
      </trkpt>
      <trkpt lat="49.62366" lon="3.81107">
        <ele>79.01</ele>
        <time>2022-06-27T12:25:56.000Z</time>
      </trkpt>
      <trkpt lat="49.62373" lon="3.81098">
        <ele>78.66</ele>
        <time>2022-06-27T12:26:06.000Z</time>
      </trkpt>
      <trkpt lat="49.62382" lon="3.81091">
        <ele>78.65</ele>
        <time>2022-06-27T12:26:16.000Z</time>
      </trkpt>
      <trkpt lat="49.62392" lon="3.81085">
        <ele>78.98</ele>
        <time>2022-06-27T12:26:26.000Z</time>
      </trkpt>
      <trkpt lat="49.62406" lon="3.81077">
        <ele>79.28</ele>
        <time>2022-06-27T12:26:36.000Z</time>
      </trkpt>
      <trkpt lat="49.62417" lon="3.81071">
        <ele>79.53</ele>
        <time>2022-06-27T12:26:46.000Z</time>
      </trkpt>
      <trkpt lat="49.62427" lon="3.81068">
        <ele>80.29</ele>
        <time>2022-06-27T12:26:56.000Z</time>
      </trkpt>
      <trkpt lat="49.62435" lon="3.81062">
        <ele>80.7</ele>
        <time>2022-06-27T12:27:06.000Z</time>
      </trkpt>
      <trkpt lat="49.62447" lon="3.81057">
        <ele>80.68</ele>
        <time>2022-06-27T12:27:16.000Z</time>
      </trkpt>
      <trkpt lat="49.62459" lon="3.81052">
        <ele>81.09</ele>
        <time>2022-06-27T12:27:26.000Z</time>
      </trkpt>
      <trkpt lat="49.6247" lon="3.81047">
        <ele>81.64</ele>
        <time>2022-06-27T12:27:36.000Z</time>
      </trkpt>
      <trkpt lat="49.62482" lon="3.81041">
        <ele>81.5</ele>
        <time>2022-06-27T12:27:46.000Z</time>
      </trkpt>
      <trkpt lat="49.62495" lon="3.8103">
        <ele>80.91</ele>
        <time>2022-06-27T12:27:56.000Z</time>
      </trkpt>
      <trkpt lat="49.62507" lon="3.81022">
        <ele>80.14</ele>
        <time>2022-06-27T12:28:06.000Z</time>
      </trkpt>
      <trkpt lat="49.62521" lon="3.81014">
        <ele>79.53</ele>
        <time>2022-06-27T12:28:16.000Z</time>
      </trkpt>
      <trkpt lat="49.62537" lon="3.81009">
        <ele>79.43</ele>
        <time>2022-06-27T12:28:26.000Z</time>
      </trkpt>
      <trkpt lat="49.62553" lon="3.81005">
        <ele>79.39</ele>
        <time>2022-06-27T12:28:36.000Z</time>
      </trkpt>
      <trkpt lat="49.6256" lon="3.81">
        <ele>79.31</ele>
        <time>2022-06-27T12:28:46.000Z</time>
      </trkpt>
      <trkpt lat="49.62565" lon="3.80998">
        <ele>79.34</ele>
        <time>2022-06-27T12:28:56.000Z</time>
      </trkpt>
      <trkpt lat="49.62576" lon="3.80991">
        <ele>79.38</ele>
        <time>2022-06-27T12:29:06.000Z</time>
      </trkpt>
      <trkpt lat="49.62582" lon="3.80987">
        <ele>79.28</ele>
        <time>2022-06-27T12:29:16.000Z</time>
      </trkpt>
      <trkpt lat="49.62601" lon="3.80974">
        <ele>79.17</ele>
        <time>2022-06-27T12:29:26.000Z</time>
      </trkpt>
      <trkpt lat="49.62605" lon="3.80971">
        <ele>79.16</ele>
        <time>2022-06-27T12:29:36.000Z</time>
      </trkpt>
      <trkpt lat="49.62612" lon="3.80968">
        <ele>79.36</ele>
        <time>2022-06-27T12:29:46.000Z</time>
      </trkpt>
      <trkpt lat="49.62626" lon="3.80962">
        <ele>80.02</ele>
        <time>2022-06-27T12:29:56.000Z</time>
      </trkpt>
      <trkpt lat="49.62641" lon="3.80956">
        <ele>80.35</ele>
        <time>2022-06-27T12:30:06.000Z</time>
      </trkpt>
      <trkpt lat="49.62646" lon="3.80952">
        <ele>80.35</ele>
        <time>2022-06-27T12:30:16.000Z</time>
      </trkpt>
      <trkpt lat="49.62656" lon="3.80945">
        <ele>79.83</ele>
        <time>2022-06-27T12:30:26.000Z</time>
      </trkpt>
      <trkpt lat="49.62668" lon="3.80937">
        <ele>79.01</ele>
        <time>2022-06-27T12:30:36.000Z</time>
      </trkpt>
      <trkpt lat="49.6268" lon="3.80929">
        <ele>78.07</ele>
        <time>2022-06-27T12:30:46.000Z</time>
      </trkpt>
      <trkpt lat="49.62692" lon="3.80921">
        <ele>77.34</ele>
        <time>2022-06-27T12:30:56.000Z</time>
      </trkpt>
      <trkpt lat="49.62709" lon="3.80911">
        <ele>76.39</ele>
        <time>2022-06-27T12:31:06.000Z</time>
      </trkpt>
      <trkpt lat="49.62723" lon="3.80909">
        <ele>75.47</ele>
        <time>2022-06-27T12:31:16.000Z</time>
      </trkpt>
      <trkpt lat="49.62733" lon="3.80906">
        <ele>74.8</ele>
        <time>2022-06-27T12:31:26.000Z</time>
      </trkpt>
      <trkpt lat="49.62746" lon="3.80899">
        <ele>74.4</ele>
        <time>2022-06-27T12:31:36.000Z</time>
      </trkpt>
      <trkpt lat="49.62759" lon="3.80897">
        <ele>74.24</ele>
        <time>2022-06-27T12:31:46.000Z</time>
      </trkpt>
      <trkpt lat="49.62767" lon="3.8089">
        <ele>74.1</ele>
        <time>2022-06-27T12:31:56.000Z</time>
      </trkpt>
      <trkpt lat="49.62774" lon="3.8088">
        <ele>73.84</ele>
        <time>2022-06-27T12:32:06.000Z</time>
      </trkpt>
      <trkpt lat="49.62786" lon="3.80872">
        <ele>73.89</ele>
        <time>2022-06-27T12:32:16.000Z</time>
      </trkpt>
      <trkpt lat="49.62797" lon="3.80866">
        <ele>73.84</ele>
        <time>2022-06-27T12:32:26.000Z</time>
      </trkpt>
      <trkpt lat="49.62809" lon="3.80862">
        <ele>73.73</ele>
        <time>2022-06-27T12:32:36.000Z</time>
      </trkpt>
      <trkpt lat="49.62817" lon="3.80855">
        <ele>73.98</ele>
        <time>2022-06-27T12:32:46.000Z</time>
      </trkpt>
      <trkpt lat="49.62828" lon="3.8085">
        <ele>74.03</ele>
        <time>2022-06-27T12:32:56.000Z</time>
      </trkpt>
      <trkpt lat="49.62843" lon="3.80844">
        <ele>74.19</ele>
        <time>2022-06-27T12:33:06.000Z</time>
      </trkpt>
      <trkpt lat="49.62853" lon="3.80838">
        <ele>74.2</ele>
        <time>2022-06-27T12:33:16.000Z</time>
      </trkpt>
      <trkpt lat="49.62863" lon="3.80831">
        <ele>73.7</ele>
        <time>2022-06-27T12:33:26.000Z</time>
      </trkpt>
      <trkpt lat="49.62869" lon="3.80835">
        <ele>73.56</ele>
        <time>2022-06-27T12:33:36.000Z</time>
      </trkpt>
      <trkpt lat="49.62869" lon="3.80843">
        <ele>74.59</ele>
        <time>2022-06-27T12:33:46.000Z</time>
      </trkpt>
      <trkpt lat="49.62865" lon="3.80846">
        <ele>75.87</ele>
        <time>2022-06-27T12:33:56.000Z</time>
      </trkpt>
      <trkpt lat="49.62863" lon="3.80846">
        <ele>76.92</ele>
        <time>2022-06-27T12:34:06.000Z</time>
      </trkpt>
      <trkpt lat="49.62862" lon="3.80845">
        <ele>77.96</ele>
        <time>2022-06-27T12:34:16.000Z</time>
      </trkpt>
      <trkpt lat="49.62862" lon="3.8084">
        <ele>77.8</ele>
        <time>2022-06-27T12:34:27.000Z</time>
      </trkpt>
      <trkpt lat="49.62863" lon="3.80839">
        <ele>77.54</ele>
        <time>2022-06-27T12:34:45.999Z</time>
      </trkpt>
      <trkpt lat="49.62866" lon="3.8083">
        <ele>80.92</ele>
        <time>2022-06-27T12:36:31.999Z</time>
      </trkpt>
      <trkpt lat="49.62867" lon="3.80826">
        <ele>80.48</ele>
        <time>2022-06-27T12:36:41.999Z</time>
      </trkpt>
      <trkpt lat="49.62874" lon="3.80815">
        <ele>79.4</ele>
        <time>2022-06-27T12:36:51.999Z</time>
      </trkpt>
      <trkpt lat="49.62886" lon="3.80816">
        <ele>77.83</ele>
        <time>2022-06-27T12:37:01.999Z</time>
      </trkpt>
      <trkpt lat="49.62897" lon="3.80809">
        <ele>76.07</ele>
        <time>2022-06-27T12:37:11.999Z</time>
      </trkpt>
      <trkpt lat="49.62906" lon="3.80804">
        <ele>74.64</ele>
        <time>2022-06-27T12:37:21.999Z</time>
      </trkpt>
      <trkpt lat="49.62915" lon="3.808">
        <ele>73.73</ele>
        <time>2022-06-27T12:37:31.999Z</time>
      </trkpt>
      <trkpt lat="49.62924" lon="3.80796">
        <ele>73.14</ele>
        <time>2022-06-27T12:37:42.999Z</time>
      </trkpt>
      <trkpt lat="49.62935" lon="3.8079">
        <ele>72.92</ele>
        <time>2022-06-27T12:37:52.999Z</time>
      </trkpt>
      <trkpt lat="49.62948" lon="3.80787">
        <ele>72.93</ele>
        <time>2022-06-27T12:38:02.999Z</time>
      </trkpt>
      <trkpt lat="49.62959" lon="3.80782">
        <ele>72.74</ele>
        <time>2022-06-27T12:38:12.999Z</time>
      </trkpt>
      <trkpt lat="49.62969" lon="3.80777">
        <ele>72.46</ele>
        <time>2022-06-27T12:38:22.999Z</time>
      </trkpt>
      <trkpt lat="49.62982" lon="3.8077">
        <ele>72.18</ele>
        <time>2022-06-27T12:38:33.999Z</time>
      </trkpt>
      <trkpt lat="49.62989" lon="3.80768">
        <ele>72.26</ele>
        <time>2022-06-27T12:38:43.999Z</time>
      </trkpt>
      <trkpt lat="49.62998" lon="3.8076">
        <ele>72.48</ele>
        <time>2022-06-27T12:38:53.999Z</time>
      </trkpt>
      <trkpt lat="49.63005" lon="3.80755">
        <ele>72.42</ele>
        <time>2022-06-27T12:39:03.999Z</time>
      </trkpt>
      <trkpt lat="49.63017" lon="3.80754">
        <ele>72.72</ele>
        <time>2022-06-27T12:39:13.999Z</time>
      </trkpt>
      <trkpt lat="49.63024" lon="3.80752">
        <ele>73.81</ele>
        <time>2022-06-27T12:39:23.999Z</time>
      </trkpt>
      <trkpt lat="49.63035" lon="3.80746">
        <ele>74.77</ele>
        <time>2022-06-27T12:39:33.999Z</time>
      </trkpt>
      <trkpt lat="49.63046" lon="3.80734">
        <ele>75.39</ele>
        <time>2022-06-27T12:39:43.999Z</time>
      </trkpt>
      <trkpt lat="49.63057" lon="3.80728">
        <ele>76.61</ele>
        <time>2022-06-27T12:39:53.999Z</time>
      </trkpt>
      <trkpt lat="49.63067" lon="3.80726">
        <ele>77.43</ele>
        <time>2022-06-27T12:40:03.999Z</time>
      </trkpt>
      <trkpt lat="49.63077" lon="3.80724">
        <ele>77.26</ele>
        <time>2022-06-27T12:40:13.999Z</time>
      </trkpt>
      <trkpt lat="49.63085" lon="3.80717">
        <ele>77.2</ele>
        <time>2022-06-27T12:40:23.999Z</time>
      </trkpt>
      <trkpt lat="49.63094" lon="3.8071">
        <ele>77.09</ele>
        <time>2022-06-27T12:40:33.999Z</time>
      </trkpt>
      <trkpt lat="49.63105" lon="3.80704">
        <ele>76.52</ele>
        <time>2022-06-27T12:40:43.999Z</time>
      </trkpt>
      <trkpt lat="49.63118" lon="3.80699">
        <ele>75.96</ele>
        <time>2022-06-27T12:40:53.999Z</time>
      </trkpt>
      <trkpt lat="49.63127" lon="3.80693">
        <ele>75.63</ele>
        <time>2022-06-27T12:41:03.999Z</time>
      </trkpt>
      <trkpt lat="49.63144" lon="3.80687">
        <ele>75.68</ele>
        <time>2022-06-27T12:41:14.999Z</time>
      </trkpt>
      <trkpt lat="49.63151" lon="3.80682">
        <ele>76.03</ele>
        <time>2022-06-27T12:41:24.999Z</time>
      </trkpt>
      <trkpt lat="49.63164" lon="3.80679">
        <ele>76.42</ele>
        <time>2022-06-27T12:41:34.999Z</time>
      </trkpt>
      <trkpt lat="49.63175" lon="3.80674">
        <ele>76.21</ele>
        <time>2022-06-27T12:41:44.999Z</time>
      </trkpt>
      <trkpt lat="49.63185" lon="3.80669">
        <ele>75.66</ele>
        <time>2022-06-27T12:41:54.999Z</time>
      </trkpt>
      <trkpt lat="49.63194" lon="3.80658">
        <ele>74.82</ele>
        <time>2022-06-27T12:42:04.999Z</time>
      </trkpt>
      <trkpt lat="49.63203" lon="3.80652">
        <ele>74.28</ele>
        <time>2022-06-27T12:42:14.999Z</time>
      </trkpt>
      <trkpt lat="49.63213" lon="3.80644">
        <ele>73.68</ele>
        <time>2022-06-27T12:42:24.999Z</time>
      </trkpt>
      <trkpt lat="49.63226" lon="3.80637">
        <ele>73.27</ele>
        <time>2022-06-27T12:42:35.999Z</time>
      </trkpt>
      <trkpt lat="49.63238" lon="3.8063">
        <ele>72.82</ele>
        <time>2022-06-27T12:42:45.999Z</time>
      </trkpt>
      <trkpt lat="49.63251" lon="3.80625">
        <ele>72.76</ele>
        <time>2022-06-27T12:42:55.999Z</time>
      </trkpt>
      <trkpt lat="49.63262" lon="3.80619">
        <ele>73.23</ele>
        <time>2022-06-27T12:43:05.999Z</time>
      </trkpt>
      <trkpt lat="49.63271" lon="3.80613">
        <ele>73.41</ele>
        <time>2022-06-27T12:43:15.999Z</time>
      </trkpt>
      <trkpt lat="49.63279" lon="3.80605">
        <ele>73.36</ele>
        <time>2022-06-27T12:43:25.999Z</time>
      </trkpt>
      <trkpt lat="49.63287" lon="3.806">
        <ele>72.91</ele>
        <time>2022-06-27T12:43:35.999Z</time>
      </trkpt>
      <trkpt lat="49.63294" lon="3.80594">
        <ele>72.17</ele>
        <time>2022-06-27T12:43:45.999Z</time>
      </trkpt>
      <trkpt lat="49.63303" lon="3.80587">
        <ele>71.24</ele>
        <time>2022-06-27T12:43:55.999Z</time>
      </trkpt>
      <trkpt lat="49.63313" lon="3.80584">
        <ele>70.65</ele>
        <time>2022-06-27T12:44:05.999Z</time>
      </trkpt>
      <trkpt lat="49.63325" lon="3.80581">
        <ele>69.93</ele>
        <time>2022-06-27T12:44:15.999Z</time>
      </trkpt>
      <trkpt lat="49.63335" lon="3.80575">
        <ele>69.65</ele>
        <time>2022-06-27T12:44:25.999Z</time>
      </trkpt>
      <trkpt lat="49.63345" lon="3.80572">
        <ele>70.2</ele>
        <time>2022-06-27T12:44:35.999Z</time>
      </trkpt>
      <trkpt lat="49.63344" lon="3.80569">
        <ele>70.52</ele>
        <time>2022-06-27T12:44:45.999Z</time>
      </trkpt>
      <trkpt lat="49.63341" lon="3.80569">
        <ele>71.36</ele>
        <time>2022-06-27T12:44:55.999Z</time>
      </trkpt>
      <trkpt lat="49.63344" lon="3.80569">
        <ele>72.57</ele>
        <time>2022-06-27T12:45:05.999Z</time>
      </trkpt>
      <trkpt lat="49.63357" lon="3.80564">
        <ele>73.86</ele>
        <time>2022-06-27T12:45:15.999Z</time>
      </trkpt>
      <trkpt lat="49.63368" lon="3.80558">
        <ele>75</ele>
        <time>2022-06-27T12:45:25.999Z</time>
      </trkpt>
      <trkpt lat="49.63381" lon="3.80551">
        <ele>75.85</ele>
        <time>2022-06-27T12:45:35.999Z</time>
      </trkpt>
      <trkpt lat="49.6339" lon="3.80552">
        <ele>76.79</ele>
        <time>2022-06-27T12:45:45.999Z</time>
      </trkpt>
      <trkpt lat="49.63386" lon="3.80553">
        <ele>77.24</ele>
        <time>2022-06-27T12:45:55.999Z</time>
      </trkpt>
      <trkpt lat="49.63395" lon="3.80546">
        <ele>78.18</ele>
        <time>2022-06-27T12:46:05.999Z</time>
      </trkpt>
      <trkpt lat="49.63408" lon="3.80532">
        <ele>78.98</ele>
        <time>2022-06-27T12:46:15.999Z</time>
      </trkpt>
      <trkpt lat="49.63417" lon="3.80526">
        <ele>79.74</ele>
        <time>2022-06-27T12:46:25.999Z</time>
      </trkpt>
      <trkpt lat="49.63423" lon="3.80523">
        <ele>79.9</ele>
        <time>2022-06-27T12:46:35.999Z</time>
      </trkpt>
      <trkpt lat="49.63431" lon="3.80515">
        <ele>80.22</ele>
        <time>2022-06-27T12:46:45.999Z</time>
      </trkpt>
      <trkpt lat="49.63443" lon="3.80507">
        <ele>80.65</ele>
        <time>2022-06-27T12:46:55.999Z</time>
      </trkpt>
      <trkpt lat="49.63455" lon="3.80501">
        <ele>81.05</ele>
        <time>2022-06-27T12:47:05.999Z</time>
      </trkpt>
      <trkpt lat="49.63465" lon="3.805">
        <ele>81.25</ele>
        <time>2022-06-27T12:47:15.999Z</time>
      </trkpt>
      <trkpt lat="49.63476" lon="3.80501">
        <ele>81.35</ele>
        <time>2022-06-27T12:47:25.999Z</time>
      </trkpt>
      <trkpt lat="49.63488" lon="3.80495">
        <ele>81.68</ele>
        <time>2022-06-27T12:47:35.999Z</time>
      </trkpt>
      <trkpt lat="49.635" lon="3.80491">
        <ele>82</ele>
        <time>2022-06-27T12:47:45.999Z</time>
      </trkpt>
      <trkpt lat="49.63509" lon="3.80488">
        <ele>82.53</ele>
        <time>2022-06-27T12:47:55.999Z</time>
      </trkpt>
      <trkpt lat="49.63518" lon="3.80483">
        <ele>83.29</ele>
        <time>2022-06-27T12:48:05.999Z</time>
      </trkpt>
      <trkpt lat="49.63526" lon="3.80478">
        <ele>84.35</ele>
        <time>2022-06-27T12:48:15.999Z</time>
      </trkpt>
      <trkpt lat="49.63535" lon="3.80469">
        <ele>85.1</ele>
        <time>2022-06-27T12:48:25.999Z</time>
      </trkpt>
      <trkpt lat="49.63545" lon="3.80458">
        <ele>85.15</ele>
        <time>2022-06-27T12:48:35.999Z</time>
      </trkpt>
      <trkpt lat="49.63554" lon="3.80453">
        <ele>85.22</ele>
        <time>2022-06-27T12:48:45.999Z</time>
      </trkpt>
      <trkpt lat="49.63561" lon="3.80453">
        <ele>85.93</ele>
        <time>2022-06-27T12:48:55.999Z</time>
      </trkpt>
      <trkpt lat="49.6357" lon="3.80448">
        <ele>86.68</ele>
        <time>2022-06-27T12:49:05.999Z</time>
      </trkpt>
      <trkpt lat="49.63582" lon="3.80445">
        <ele>87.32</ele>
        <time>2022-06-27T12:49:15.999Z</time>
      </trkpt>
      <trkpt lat="49.63594" lon="3.80439">
        <ele>87.85</ele>
        <time>2022-06-27T12:49:25.999Z</time>
      </trkpt>
      <trkpt lat="49.63602" lon="3.80434">
        <ele>88.16</ele>
        <time>2022-06-27T12:49:35.999Z</time>
      </trkpt>
      <trkpt lat="49.63609" lon="3.8043">
        <ele>88.31</ele>
        <time>2022-06-27T12:49:45.999Z</time>
      </trkpt>
      <trkpt lat="49.63614" lon="3.80425">
        <ele>88.39</ele>
        <time>2022-06-27T12:49:55.999Z</time>
      </trkpt>
      <trkpt lat="49.63622" lon="3.80419">
        <ele>88.4</ele>
        <time>2022-06-27T12:50:05.999Z</time>
      </trkpt>
      <trkpt lat="49.63633" lon="3.80413">
        <ele>88.74</ele>
        <time>2022-06-27T12:50:15.999Z</time>
      </trkpt>
      <trkpt lat="49.63643" lon="3.80408">
        <ele>89.3</ele>
        <time>2022-06-27T12:50:25.999Z</time>
      </trkpt>
      <trkpt lat="49.63653" lon="3.80402">
        <ele>89.32</ele>
        <time>2022-06-27T12:50:35.999Z</time>
      </trkpt>
      <trkpt lat="49.63661" lon="3.80398">
        <ele>89.32</ele>
        <time>2022-06-27T12:50:45.999Z</time>
      </trkpt>
      <trkpt lat="49.63669" lon="3.80395">
        <ele>89.43</ele>
        <time>2022-06-27T12:50:56.999Z</time>
      </trkpt>
      <trkpt lat="49.63679" lon="3.80388">
        <ele>89.5</ele>
        <time>2022-06-27T12:51:06.999Z</time>
      </trkpt>
      <trkpt lat="49.63689" lon="3.80376">
        <ele>89.06</ele>
        <time>2022-06-27T12:51:16.999Z</time>
      </trkpt>
      <trkpt lat="49.63699" lon="3.80369">
        <ele>88.56</ele>
        <time>2022-06-27T12:51:26.999Z</time>
      </trkpt>
      <trkpt lat="49.6371" lon="3.80364">
        <ele>88.51</ele>
        <time>2022-06-27T12:51:36.999Z</time>
      </trkpt>
      <trkpt lat="49.63721" lon="3.8036">
        <ele>88.55</ele>
        <time>2022-06-27T12:51:46.999Z</time>
      </trkpt>
      <trkpt lat="49.63732" lon="3.80357">
        <ele>88.97</ele>
        <time>2022-06-27T12:51:56.999Z</time>
      </trkpt>
      <trkpt lat="49.63739" lon="3.80357">
        <ele>89.44</ele>
        <time>2022-06-27T12:52:06.999Z</time>
      </trkpt>
      <trkpt lat="49.63747" lon="3.80353">
        <ele>89.36</ele>
        <time>2022-06-27T12:52:16.999Z</time>
      </trkpt>
      <trkpt lat="49.63758" lon="3.80346">
        <ele>89.01</ele>
        <time>2022-06-27T12:52:26.999Z</time>
      </trkpt>
      <trkpt lat="49.63765" lon="3.80339">
        <ele>88.96</ele>
        <time>2022-06-27T12:52:36.999Z</time>
      </trkpt>
      <trkpt lat="49.63774" lon="3.80333">
        <ele>89.36</ele>
        <time>2022-06-27T12:52:46.999Z</time>
      </trkpt>
      <trkpt lat="49.63785" lon="3.80328">
        <ele>89.94</ele>
        <time>2022-06-27T12:52:56.999Z</time>
      </trkpt>
      <trkpt lat="49.63795" lon="3.80326">
        <ele>90.58</ele>
        <time>2022-06-27T12:53:06.999Z</time>
      </trkpt>
      <trkpt lat="49.63803" lon="3.80322">
        <ele>91.27</ele>
        <time>2022-06-27T12:53:16.999Z</time>
      </trkpt>
      <trkpt lat="49.6381" lon="3.80319">
        <ele>91.79</ele>
        <time>2022-06-27T12:53:26.999Z</time>
      </trkpt>
      <trkpt lat="49.63819" lon="3.80316">
        <ele>92.74</ele>
        <time>2022-06-27T12:53:36.999Z</time>
      </trkpt>
      <trkpt lat="49.63827" lon="3.80312">
        <ele>94.25</ele>
        <time>2022-06-27T12:53:46.999Z</time>
      </trkpt>
      <trkpt lat="49.63835" lon="3.80307">
        <ele>95.09</ele>
        <time>2022-06-27T12:53:56.999Z</time>
      </trkpt>
      <trkpt lat="49.63839" lon="3.80295">
        <ele>94.37</ele>
        <time>2022-06-27T12:54:06.999Z</time>
      </trkpt>
      <trkpt lat="49.63839" lon="3.80293">
        <ele>93.2</ele>
        <time>2022-06-27T12:54:16.999Z</time>
      </trkpt>
      <trkpt lat="49.63846" lon="3.80291">
        <ele>91.85</ele>
        <time>2022-06-27T12:54:26.999Z</time>
      </trkpt>
      <trkpt lat="49.63846" lon="3.80293">
        <ele>90.18</ele>
        <time>2022-06-27T12:54:38.999Z</time>
      </trkpt>
      <trkpt lat="49.63846" lon="3.80295">
        <ele>88.81</ele>
        <time>2022-06-27T12:54:48.999Z</time>
      </trkpt>
      <trkpt lat="49.63847" lon="3.80296">
        <ele>88.55</ele>
        <time>2022-06-27T12:54:58.999Z</time>
      </trkpt>
      <trkpt lat="49.63848" lon="3.80295">
        <ele>86.63</ele>
        <time>2022-06-27T12:55:18.999Z</time>
      </trkpt>
      <trkpt lat="49.63846" lon="3.80291">
        <ele>85.16</ele>
        <time>2022-06-27T12:55:28.999Z</time>
      </trkpt>
      <trkpt lat="49.63844" lon="3.80292">
        <ele>84.59</ele>
        <time>2022-06-27T12:55:38.999Z</time>
      </trkpt>
      <trkpt lat="49.63845" lon="3.80287">
        <ele>79.21</ele>
        <time>2022-06-27T12:56:41.999Z</time>
      </trkpt>
      <trkpt lat="49.63844" lon="3.80279">
        <ele>79.01</ele>
        <time>2022-06-27T12:56:51.999Z</time>
      </trkpt>
      <trkpt lat="49.63842" lon="3.80286">
        <ele>78.6</ele>
        <time>2022-06-27T12:57:01.999Z</time>
      </trkpt>
      <trkpt lat="49.63843" lon="3.80286">
        <ele>78.55</ele>
        <time>2022-06-27T12:57:11.999Z</time>
      </trkpt>
      <trkpt lat="49.63845" lon="3.80286">
        <ele>78.85</ele>
        <time>2022-06-27T12:57:21.999Z</time>
      </trkpt>
      <trkpt lat="49.63849" lon="3.80289">
        <ele>78.65</ele>
        <time>2022-06-27T12:57:31.999Z</time>
      </trkpt>
      <trkpt lat="49.63851" lon="3.8029">
        <ele>78.78</ele>
        <time>2022-06-27T12:57:41.999Z</time>
      </trkpt>
      <trkpt lat="49.63851" lon="3.80289">
        <ele>77.84</ele>
        <time>2022-06-27T12:58:07.999Z</time>
      </trkpt>
      <trkpt lat="49.63849" lon="3.80285">
        <ele>77.68</ele>
        <time>2022-06-27T12:58:17.999Z</time>
      </trkpt>
      <trkpt lat="49.63849" lon="3.80286">
        <ele>77.69</ele>
        <time>2022-06-27T12:58:27.999Z</time>
      </trkpt>
      <trkpt lat="49.63853" lon="3.80283">
        <ele>82.12</ele>
        <time>2022-06-27T12:59:15.999Z</time>
      </trkpt>
      <trkpt lat="49.63854" lon="3.80289">
        <ele>81.54</ele>
        <time>2022-06-27T12:59:25.999Z</time>
      </trkpt>
      <trkpt lat="49.63855" lon="3.80289">
        <ele>80.67</ele>
        <time>2022-06-27T12:59:35.999Z</time>
      </trkpt>
      <trkpt lat="49.6385" lon="3.80292">
        <ele>79.87</ele>
        <time>2022-06-27T12:59:45.999Z</time>
      </trkpt>
      <trkpt lat="49.63847" lon="3.8029">
        <ele>79.79</ele>
        <time>2022-06-27T12:59:55.999Z</time>
      </trkpt>
      <trkpt lat="49.6385" lon="3.80289">
        <ele>79.85</ele>
        <time>2022-06-27T13:00:05.999Z</time>
      </trkpt>
      <trkpt lat="49.63849" lon="3.80286">
        <ele>82.9</ele>
        <time>2022-06-27T13:02:31.999Z</time>
      </trkpt>
      <trkpt lat="49.6385" lon="3.80288">
        <ele>82.61</ele>
        <time>2022-06-27T13:02:41.999Z</time>
      </trkpt>
      <trkpt lat="49.63848" lon="3.80282">
        <ele>82.65</ele>
        <time>2022-06-27T13:02:51.999Z</time>
      </trkpt>
      <trkpt lat="49.63839" lon="3.80272">
        <ele>82.84</ele>
        <time>2022-06-27T13:03:01.999Z</time>
      </trkpt>
      <trkpt lat="49.63834" lon="3.80259">
        <ele>81.68</ele>
        <time>2022-06-27T13:03:11.999Z</time>
      </trkpt>
      <trkpt lat="49.63832" lon="3.80245">
        <ele>79.76</ele>
        <time>2022-06-27T13:03:21.999Z</time>
      </trkpt>
      <trkpt lat="49.63829" lon="3.8023">
        <ele>78.53</ele>
        <time>2022-06-27T13:03:31.999Z</time>
      </trkpt>
      <trkpt lat="49.63824" lon="3.80219">
        <ele>77.12</ele>
        <time>2022-06-27T13:03:41.999Z</time>
      </trkpt>
      <trkpt lat="49.63811" lon="3.80198">
        <ele>75.37</ele>
        <time>2022-06-27T13:03:51.999Z</time>
      </trkpt>
      <trkpt lat="49.63801" lon="3.80184">
        <ele>73.15</ele>
        <time>2022-06-27T13:04:01.999Z</time>
      </trkpt>
      <trkpt lat="49.63796" lon="3.80167">
        <ele>70.89</ele>
        <time>2022-06-27T13:04:11.999Z</time>
      </trkpt>
      <trkpt lat="49.63792" lon="3.80153">
        <ele>68.05</ele>
        <time>2022-06-27T13:04:21.999Z</time>
      </trkpt>
      <trkpt lat="49.63787" lon="3.80139">
        <ele>66.12</ele>
        <time>2022-06-27T13:04:31.999Z</time>
      </trkpt>
      <trkpt lat="49.63781" lon="3.80129">
        <ele>63.99</ele>
        <time>2022-06-27T13:04:41.999Z</time>
      </trkpt>
      <trkpt lat="49.63774" lon="3.80118">
        <ele>62.06</ele>
        <time>2022-06-27T13:04:51.999Z</time>
      </trkpt>
      <trkpt lat="49.63766" lon="3.80103">
        <ele>60.57</ele>
        <time>2022-06-27T13:05:01.999Z</time>
      </trkpt>
      <trkpt lat="49.63759" lon="3.80096">
        <ele>59.46</ele>
        <time>2022-06-27T13:05:11.999Z</time>
      </trkpt>
      <trkpt lat="49.63753" lon="3.80088">
        <ele>59.6</ele>
        <time>2022-06-27T13:05:21.999Z</time>
      </trkpt>
      <trkpt lat="49.63748" lon="3.80076">
        <ele>59.44</ele>
        <time>2022-06-27T13:05:31.999Z</time>
      </trkpt>
      <trkpt lat="49.63747" lon="3.80059">
        <ele>59.34</ele>
        <time>2022-06-27T13:05:41.999Z</time>
      </trkpt>
      <trkpt lat="49.63743" lon="3.80047">
        <ele>59.17</ele>
        <time>2022-06-27T13:05:51.999Z</time>
      </trkpt>
      <trkpt lat="49.63742" lon="3.80033">
        <ele>59.07</ele>
        <time>2022-06-27T13:06:01.999Z</time>
      </trkpt>
      <trkpt lat="49.63728" lon="3.80017">
        <ele>58.85</ele>
        <time>2022-06-27T13:06:11.999Z</time>
      </trkpt>
      <trkpt lat="49.63716" lon="3.79994">
        <ele>58.3</ele>
        <time>2022-06-27T13:06:21.999Z</time>
      </trkpt>
      <trkpt lat="49.63713" lon="3.79978">
        <ele>57.74</ele>
        <time>2022-06-27T13:06:31.999Z</time>
      </trkpt>
      <trkpt lat="49.63708" lon="3.79961">
        <ele>55.92</ele>
        <time>2022-06-27T13:06:41.999Z</time>
      </trkpt>
      <trkpt lat="49.63704" lon="3.79947">
        <ele>55.58</ele>
        <time>2022-06-27T13:06:51.999Z</time>
      </trkpt>
      <trkpt lat="49.63701" lon="3.79934">
        <ele>56.42</ele>
        <time>2022-06-27T13:07:01.999Z</time>
      </trkpt>
      <trkpt lat="49.63695" lon="3.79924">
        <ele>58.18</ele>
        <time>2022-06-27T13:07:11.999Z</time>
      </trkpt>
      <trkpt lat="49.63686" lon="3.79922">
        <ele>60.69</ele>
        <time>2022-06-27T13:07:21.999Z</time>
      </trkpt>
      <trkpt lat="49.63675" lon="3.7991">
        <ele>62.55</ele>
        <time>2022-06-27T13:07:31.999Z</time>
      </trkpt>
      <trkpt lat="49.63668" lon="3.79896">
        <ele>63.28</ele>
        <time>2022-06-27T13:07:41.999Z</time>
      </trkpt>
      <trkpt lat="49.63665" lon="3.79889">
        <ele>64.09</ele>
        <time>2022-06-27T13:07:51.999Z</time>
      </trkpt>
      <trkpt lat="49.63658" lon="3.79873">
        <ele>64.32</ele>
        <time>2022-06-27T13:08:01.999Z</time>
      </trkpt>
      <trkpt lat="49.6365" lon="3.79868">
        <ele>64.64</ele>
        <time>2022-06-27T13:08:11.999Z</time>
      </trkpt>
      <trkpt lat="49.63643" lon="3.79864">
        <ele>64.68</ele>
        <time>2022-06-27T13:08:21.999Z</time>
      </trkpt>
      <trkpt lat="49.63637" lon="3.79849">
        <ele>64.43</ele>
        <time>2022-06-27T13:08:31.999Z</time>
      </trkpt>
      <trkpt lat="49.63632" lon="3.79836">
        <ele>64.17</ele>
        <time>2022-06-27T13:08:41.999Z</time>
      </trkpt>
      <trkpt lat="49.63626" lon="3.79818">
        <ele>63.34</ele>
        <time>2022-06-27T13:08:51.999Z</time>
      </trkpt>
      <trkpt lat="49.6362" lon="3.79799">
        <ele>62.25</ele>
        <time>2022-06-27T13:09:01.999Z</time>
      </trkpt>
      <trkpt lat="49.63615" lon="3.79782">
        <ele>61.52</ele>
        <time>2022-06-27T13:09:11.999Z</time>
      </trkpt>
      <trkpt lat="49.63609" lon="3.79772">
        <ele>61.03</ele>
        <time>2022-06-27T13:09:21.999Z</time>
      </trkpt>
      <trkpt lat="49.63602" lon="3.79763">
        <ele>60.62</ele>
        <time>2022-06-27T13:09:31.999Z</time>
      </trkpt>
      <trkpt lat="49.63596" lon="3.79754">
        <ele>59.32</ele>
        <time>2022-06-27T13:09:41.999Z</time>
      </trkpt>
      <trkpt lat="49.63588" lon="3.79737">
        <ele>57.79</ele>
        <time>2022-06-27T13:09:51.999Z</time>
      </trkpt>
      <trkpt lat="49.63582" lon="3.79722">
        <ele>57.74</ele>
        <time>2022-06-27T13:10:01.999Z</time>
      </trkpt>
      <trkpt lat="49.63582" lon="3.79714">
        <ele>58.45</ele>
        <time>2022-06-27T13:10:11.999Z</time>
      </trkpt>
      <trkpt lat="49.63579" lon="3.79703">
        <ele>59.24</ele>
        <time>2022-06-27T13:10:21.999Z</time>
      </trkpt>
      <trkpt lat="49.63572" lon="3.79686">
        <ele>60.29</ele>
        <time>2022-06-27T13:10:31.999Z</time>
      </trkpt>
      <trkpt lat="49.63568" lon="3.79675">
        <ele>60.54</ele>
        <time>2022-06-27T13:10:41.999Z</time>
      </trkpt>
      <trkpt lat="49.63566" lon="3.79659">
        <ele>61.63</ele>
        <time>2022-06-27T13:10:51.999Z</time>
      </trkpt>
      <trkpt lat="49.63564" lon="3.79645">
        <ele>62.43</ele>
        <time>2022-06-27T13:11:01.999Z</time>
      </trkpt>
      <trkpt lat="49.63558" lon="3.79637">
        <ele>62.68</ele>
        <time>2022-06-27T13:11:12.999Z</time>
      </trkpt>
      <trkpt lat="49.63549" lon="3.79627">
        <ele>61.85</ele>
        <time>2022-06-27T13:11:22.999Z</time>
      </trkpt>
      <trkpt lat="49.63539" lon="3.79612">
        <ele>60.69</ele>
        <time>2022-06-27T13:11:32.999Z</time>
      </trkpt>
      <trkpt lat="49.6353" lon="3.79598">
        <ele>59.28</ele>
        <time>2022-06-27T13:11:42.999Z</time>
      </trkpt>
      <trkpt lat="49.63527" lon="3.79579">
        <ele>59.31</ele>
        <time>2022-06-27T13:11:52.999Z</time>
      </trkpt>
      <trkpt lat="49.63526" lon="3.79567">
        <ele>59.85</ele>
        <time>2022-06-27T13:12:02.999Z</time>
      </trkpt>
      <trkpt lat="49.63521" lon="3.79554">
        <ele>60.36</ele>
        <time>2022-06-27T13:12:12.999Z</time>
      </trkpt>
      <trkpt lat="49.63514" lon="3.79538">
        <ele>61.06</ele>
        <time>2022-06-27T13:12:22.999Z</time>
      </trkpt>
      <trkpt lat="49.6351" lon="3.79525">
        <ele>61.54</ele>
        <time>2022-06-27T13:12:32.999Z</time>
      </trkpt>
      <trkpt lat="49.63504" lon="3.79513">
        <ele>61.32</ele>
        <time>2022-06-27T13:12:42.999Z</time>
      </trkpt>
      <trkpt lat="49.63499" lon="3.79499">
        <ele>61.21</ele>
        <time>2022-06-27T13:12:52.999Z</time>
      </trkpt>
      <trkpt lat="49.63494" lon="3.79485">
        <ele>61.1</ele>
        <time>2022-06-27T13:13:02.999Z</time>
      </trkpt>
      <trkpt lat="49.63488" lon="3.79474">
        <ele>61.09</ele>
        <time>2022-06-27T13:13:12.999Z</time>
      </trkpt>
      <trkpt lat="49.63483" lon="3.79463">
        <ele>61.08</ele>
        <time>2022-06-27T13:13:22.999Z</time>
      </trkpt>
      <trkpt lat="49.63478" lon="3.79456">
        <ele>61.13</ele>
        <time>2022-06-27T13:13:32.999Z</time>
      </trkpt>
      <trkpt lat="49.63471" lon="3.79447">
        <ele>61.3</ele>
        <time>2022-06-27T13:13:42.999Z</time>
      </trkpt>
      <trkpt lat="49.63466" lon="3.79434">
        <ele>61.59</ele>
        <time>2022-06-27T13:13:52.999Z</time>
      </trkpt>
      <trkpt lat="49.63459" lon="3.79418">
        <ele>62.11</ele>
        <time>2022-06-27T13:14:02.999Z</time>
      </trkpt>
      <trkpt lat="49.63452" lon="3.79399">
        <ele>62.52</ele>
        <time>2022-06-27T13:14:12.999Z</time>
      </trkpt>
      <trkpt lat="49.63447" lon="3.79383">
        <ele>63.09</ele>
        <time>2022-06-27T13:14:22.999Z</time>
      </trkpt>
      <trkpt lat="49.63442" lon="3.79372">
        <ele>63.82</ele>
        <time>2022-06-27T13:14:32.999Z</time>
      </trkpt>
      <trkpt lat="49.63438" lon="3.79358">
        <ele>64.49</ele>
        <time>2022-06-27T13:14:42.999Z</time>
      </trkpt>
      <trkpt lat="49.63433" lon="3.79346">
        <ele>64.96</ele>
        <time>2022-06-27T13:14:52.999Z</time>
      </trkpt>
      <trkpt lat="49.63428" lon="3.79333">
        <ele>65.35</ele>
        <time>2022-06-27T13:15:03.999Z</time>
      </trkpt>
      <trkpt lat="49.63425" lon="3.7932">
        <ele>65.62</ele>
        <time>2022-06-27T13:15:13.999Z</time>
      </trkpt>
      <trkpt lat="49.6342" lon="3.79305">
        <ele>65.44</ele>
        <time>2022-06-27T13:15:23.999Z</time>
      </trkpt>
      <trkpt lat="49.63413" lon="3.79293">
        <ele>65.28</ele>
        <time>2022-06-27T13:15:33.999Z</time>
      </trkpt>
      <trkpt lat="49.63409" lon="3.79282">
        <ele>65.89</ele>
        <time>2022-06-27T13:15:43.999Z</time>
      </trkpt>
      <trkpt lat="49.63404" lon="3.79274">
        <ele>66.79</ele>
        <time>2022-06-27T13:15:53.999Z</time>
      </trkpt>
      <trkpt lat="49.634" lon="3.79259">
        <ele>67.41</ele>
        <time>2022-06-27T13:16:03.999Z</time>
      </trkpt>
      <trkpt lat="49.63397" lon="3.79245">
        <ele>73.06</ele>
        <time>2022-06-27T13:16:13.999Z</time>
      </trkpt>
      <trkpt lat="49.63389" lon="3.79234">
        <ele>73.06</ele>
        <time>2022-06-27T13:16:23.999Z</time>
      </trkpt>
      <trkpt lat="49.63378" lon="3.79224">
        <ele>73.06</ele>
        <time>2022-06-27T13:16:34.999Z</time>
      </trkpt>
      <trkpt lat="49.63372" lon="3.79209">
        <ele>73.06</ele>
        <time>2022-06-27T13:16:44.999Z</time>
      </trkpt>
      <trkpt lat="49.63367" lon="3.79195">
        <ele>73.06</ele>
        <time>2022-06-27T13:16:54.999Z</time>
      </trkpt>
      <trkpt lat="49.63364" lon="3.79184">
        <ele>73.06</ele>
        <time>2022-06-27T13:17:04.999Z</time>
      </trkpt>
      <trkpt lat="49.63357" lon="3.79173">
        <ele>73.06</ele>
        <time>2022-06-27T13:17:14.999Z</time>
      </trkpt>
      <trkpt lat="49.63353" lon="3.79171">
        <ele>73.06</ele>
        <time>2022-06-27T13:17:24.999Z</time>
      </trkpt>
      <trkpt lat="49.63352" lon="3.79169">
        <ele>73.06</ele>
        <time>2022-06-27T13:17:38.999Z</time>
      </trkpt>
      <trkpt lat="49.63354" lon="3.79169">
        <ele>73.06</ele>
        <time>2022-06-27T13:17:48.999Z</time>
      </trkpt>
      <trkpt lat="49.63354" lon="3.79169">
        <ele>73.06</ele>
        <time>2022-06-27T13:17:59.999Z</time>
      </trkpt>
      <trkpt lat="49.63357" lon="3.79167">
        <ele>73.06</ele>
        <time>2022-06-27T13:18:09.999Z</time>
      </trkpt>
      <trkpt lat="49.63357" lon="3.79166">
        <ele>73.06</ele>
        <time>2022-06-27T13:18:20.999Z</time>
      </trkpt>
      <trkpt lat="49.6336" lon="3.79169">
        <ele>73.06</ele>
        <time>2022-06-27T13:18:30.999Z</time>
      </trkpt>
      <trkpt lat="49.63361" lon="3.7917">
        <ele>73.06</ele>
        <time>2022-06-27T13:18:40.999Z</time>
      </trkpt>
      <trkpt lat="49.63362" lon="3.79169">
        <ele>73.06</ele>
        <time>2022-06-27T13:18:55.999Z</time>
      </trkpt>
      <trkpt lat="49.63361" lon="3.79169">
        <ele>73.06</ele>
        <time>2022-06-27T13:19:05.999Z</time>
      </trkpt>
      <trkpt lat="49.63359" lon="3.7916">
        <ele>73.06</ele>
        <time>2022-06-27T13:19:15.999Z</time>
      </trkpt>
      <trkpt lat="49.6336" lon="3.79158">
        <ele>73.06</ele>
        <time>2022-06-27T13:19:25.999Z</time>
      </trkpt>
      <trkpt lat="49.63361" lon="3.79167">
        <ele>73.06</ele>
        <time>2022-06-27T13:19:35.999Z</time>
      </trkpt>
      <trkpt lat="49.63359" lon="3.79165">
        <ele>73.06</ele>
        <time>2022-06-27T13:19:45.999Z</time>
      </trkpt>
      <trkpt lat="49.6336" lon="3.79166">
        <ele>73.06</ele>
        <time>2022-06-27T13:19:55.999Z</time>
      </trkpt>
      <trkpt lat="49.63362" lon="3.79162">
        <ele>73.06</ele>
        <time>2022-06-27T13:20:05.999Z</time>
      </trkpt>
      <trkpt lat="49.63361" lon="3.79163">
        <ele>73.06</ele>
        <time>2022-06-27T13:20:29.999Z</time>
      </trkpt>
      <trkpt lat="49.63359" lon="3.79165">
        <ele>73.06</ele>
        <time>2022-06-27T13:20:39.999Z</time>
      </trkpt>
      <trkpt lat="49.63357" lon="3.79164">
        <ele>73.06</ele>
        <time>2022-06-27T13:20:49.999Z</time>
      </trkpt>
      <trkpt lat="49.63357" lon="3.79162">
        <ele>73.06</ele>
        <time>2022-06-27T13:20:59.999Z</time>
      </trkpt>
      <trkpt lat="49.63355" lon="3.79152">
        <ele>73.06</ele>
        <time>2022-06-27T13:21:09.999Z</time>
      </trkpt>
      <trkpt lat="49.63356" lon="3.79135">
        <ele>73.06</ele>
        <time>2022-06-27T13:21:19.999Z</time>
      </trkpt>
      <trkpt lat="49.63351" lon="3.7912">
        <ele>73.06</ele>
        <time>2022-06-27T13:21:29.999Z</time>
      </trkpt>
      <trkpt lat="49.63345" lon="3.79104">
        <ele>73.06</ele>
        <time>2022-06-27T13:21:39.999Z</time>
      </trkpt>
      <trkpt lat="49.6334" lon="3.79085">
        <ele>73.06</ele>
        <time>2022-06-27T13:21:49.999Z</time>
      </trkpt>
      <trkpt lat="49.63337" lon="3.79068">
        <ele>73.06</ele>
        <time>2022-06-27T13:21:59.999Z</time>
      </trkpt>
      <trkpt lat="49.63332" lon="3.79045">
        <ele>73.06</ele>
        <time>2022-06-27T13:22:09.999Z</time>
      </trkpt>
      <trkpt lat="49.63327" lon="3.79022">
        <ele>73.06</ele>
        <time>2022-06-27T13:22:19.999Z</time>
      </trkpt>
      <trkpt lat="49.63323" lon="3.79005">
        <ele>73.06</ele>
        <time>2022-06-27T13:22:29.999Z</time>
      </trkpt>
      <trkpt lat="49.63317" lon="3.78992">
        <ele>73.06</ele>
        <time>2022-06-27T13:22:39.999Z</time>
      </trkpt>
      <trkpt lat="49.63312" lon="3.78972">
        <ele>73.06</ele>
        <time>2022-06-27T13:22:49.999Z</time>
      </trkpt>
      <trkpt lat="49.6331" lon="3.78953">
        <ele>73.06</ele>
        <time>2022-06-27T13:22:59.999Z</time>
      </trkpt>
      <trkpt lat="49.63307" lon="3.78935">
        <ele>73.06</ele>
        <time>2022-06-27T13:23:09.999Z</time>
      </trkpt>
      <trkpt lat="49.63302" lon="3.78911">
        <ele>73.06</ele>
        <time>2022-06-27T13:23:19.999Z</time>
      </trkpt>
      <trkpt lat="49.63299" lon="3.78895">
        <ele>73.06</ele>
        <time>2022-06-27T13:23:29.999Z</time>
      </trkpt>
      <trkpt lat="49.63298" lon="3.78879">
        <ele>73.06</ele>
        <time>2022-06-27T13:23:39.999Z</time>
      </trkpt>
      <trkpt lat="49.63297" lon="3.78866">
        <ele>73.06</ele>
        <time>2022-06-27T13:23:49.999Z</time>
      </trkpt>
      <trkpt lat="49.6329" lon="3.78849">
        <ele>73.06</ele>
        <time>2022-06-27T13:23:59.999Z</time>
      </trkpt>
      <trkpt lat="49.63285" lon="3.78837">
        <ele>73.06</ele>
        <time>2022-06-27T13:24:09.999Z</time>
      </trkpt>
      <trkpt lat="49.63284" lon="3.78824">
        <ele>73.06</ele>
        <time>2022-06-27T13:24:19.999Z</time>
      </trkpt>
      <trkpt lat="49.6328" lon="3.78808">
        <ele>71.37</ele>
        <time>2022-06-27T13:24:29.999Z</time>
      </trkpt>
      <trkpt lat="49.63278" lon="3.78796">
        <ele>71.36</ele>
        <time>2022-06-27T13:24:39.999Z</time>
      </trkpt>
      <trkpt lat="49.63276" lon="3.78781">
        <ele>71.79</ele>
        <time>2022-06-27T13:24:49.999Z</time>
      </trkpt>
      <trkpt lat="49.63277" lon="3.78776">
        <ele>71.36</ele>
        <time>2022-06-27T13:24:59.999Z</time>
      </trkpt>
      <trkpt lat="49.6328" lon="3.78775">
        <ele>73.86</ele>
        <time>2022-06-27T13:26:07.999Z</time>
      </trkpt>
      <trkpt lat="49.63283" lon="3.78771">
        <ele>71.36</ele>
        <time>2022-06-27T13:26:17.999Z</time>
      </trkpt>
      <trkpt lat="49.63284" lon="3.78767">
        <ele>71.36</ele>
        <time>2022-06-27T13:26:27.999Z</time>
      </trkpt>
      <trkpt lat="49.63284" lon="3.78763">
        <ele>71.36</ele>
        <time>2022-06-27T13:26:37.999Z</time>
      </trkpt>
      <trkpt lat="49.63282" lon="3.78752">
        <ele>71.86</ele>
        <time>2022-06-27T13:26:47.999Z</time>
      </trkpt>
      <trkpt lat="49.63279" lon="3.78741">
        <ele>71.36</ele>
        <time>2022-06-27T13:26:57.999Z</time>
      </trkpt>
      <trkpt lat="49.63274" lon="3.78729">
        <ele>72.06</ele>
        <time>2022-06-27T13:27:07.999Z</time>
      </trkpt>
      <trkpt lat="49.63269" lon="3.78717">
        <ele>71.36</ele>
        <time>2022-06-27T13:27:17.999Z</time>
      </trkpt>
      <trkpt lat="49.63264" lon="3.78709">
        <ele>72.16</ele>
        <time>2022-06-27T13:27:27.999Z</time>
      </trkpt>
      <trkpt lat="49.63256" lon="3.78696">
        <ele>72.16</ele>
        <time>2022-06-27T13:27:37.999Z</time>
      </trkpt>
      <trkpt lat="49.63251" lon="3.78688">
        <ele>71.94</ele>
        <time>2022-06-27T13:27:47.999Z</time>
      </trkpt>
      <trkpt lat="49.63247" lon="3.78687">
        <ele>71.86</ele>
        <time>2022-06-27T13:27:57.999Z</time>
      </trkpt>
      <trkpt lat="49.63238" lon="3.78682">
        <ele>72.16</ele>
        <time>2022-06-27T13:28:07.999Z</time>
      </trkpt>
      <trkpt lat="49.63234" lon="3.78688">
        <ele>72.16</ele>
        <time>2022-06-27T13:28:17.999Z</time>
      </trkpt>
      <trkpt lat="49.63226" lon="3.78696">
        <ele>72.16</ele>
        <time>2022-06-27T13:28:27.999Z</time>
      </trkpt>
      <trkpt lat="49.63225" lon="3.78704">
        <ele>72.16</ele>
        <time>2022-06-27T13:28:37.999Z</time>
      </trkpt>
      <trkpt lat="49.63225" lon="3.78702">
        <ele>72.16</ele>
        <time>2022-06-27T13:28:47.999Z</time>
      </trkpt>
      <trkpt lat="49.63226" lon="3.78699">
        <ele>72.16</ele>
        <time>2022-06-27T13:28:57.999Z</time>
      </trkpt>
      <trkpt lat="49.63228" lon="3.78702">
        <ele>71.56</ele>
        <time>2022-06-27T13:30:45.000Z</time>
      </trkpt>
      <trkpt lat="49.63225" lon="3.78714">
        <ele>71.86</ele>
        <time>2022-06-27T13:30:55.000Z</time>
      </trkpt>
      <trkpt lat="49.63213" lon="3.78735">
        <ele>71.56</ele>
        <time>2022-06-27T13:31:05.000Z</time>
      </trkpt>
      <trkpt lat="49.63201" lon="3.78757">
        <ele>71.86</ele>
        <time>2022-06-27T13:31:15.000Z</time>
      </trkpt>
      <trkpt lat="49.63188" lon="3.78765">
        <ele>71.57</ele>
        <time>2022-06-27T13:31:25.000Z</time>
      </trkpt>
      <trkpt lat="49.63177" lon="3.78772">
        <ele>71.56</ele>
        <time>2022-06-27T13:31:35.000Z</time>
      </trkpt>
      <trkpt lat="49.63165" lon="3.78781">
        <ele>71.56</ele>
        <time>2022-06-27T13:31:45.000Z</time>
      </trkpt>
      <trkpt lat="49.6315" lon="3.78793">
        <ele>71.56</ele>
        <time>2022-06-27T13:31:56.000Z</time>
      </trkpt>
      <trkpt lat="49.63136" lon="3.78802">
        <ele>71.56</ele>
        <time>2022-06-27T13:32:06.000Z</time>
      </trkpt>
      <trkpt lat="49.63124" lon="3.78812">
        <ele>73.04</ele>
        <time>2022-06-27T13:32:16.000Z</time>
      </trkpt>
      <trkpt lat="49.63112" lon="3.78823">
        <ele>73.06</ele>
        <time>2022-06-27T13:32:26.000Z</time>
      </trkpt>
      <trkpt lat="49.63097" lon="3.78837">
        <ele>73.06</ele>
        <time>2022-06-27T13:32:36.000Z</time>
      </trkpt>
      <trkpt lat="49.63082" lon="3.78847">
        <ele>76.26</ele>
        <time>2022-06-27T13:32:46.000Z</time>
      </trkpt>
      <trkpt lat="49.63063" lon="3.78854">
        <ele>76.26</ele>
        <time>2022-06-27T13:32:56.000Z</time>
      </trkpt>
      <trkpt lat="49.63045" lon="3.78858">
        <ele>76.26</ele>
        <time>2022-06-27T13:33:06.000Z</time>
      </trkpt>
      <trkpt lat="49.63032" lon="3.78862">
        <ele>76.26</ele>
        <time>2022-06-27T13:33:16.000Z</time>
      </trkpt>
      <trkpt lat="49.63021" lon="3.78869">
        <ele>76.26</ele>
        <time>2022-06-27T13:33:26.000Z</time>
      </trkpt>
      <trkpt lat="49.63018" lon="3.7888">
        <ele>76.26</ele>
        <time>2022-06-27T13:33:36.000Z</time>
      </trkpt>
      <trkpt lat="49.63008" lon="3.78895">
        <ele>76.26</ele>
        <time>2022-06-27T13:33:46.000Z</time>
      </trkpt>
      <trkpt lat="49.62996" lon="3.78909">
        <ele>76.26</ele>
        <time>2022-06-27T13:33:56.000Z</time>
      </trkpt>
      <trkpt lat="49.62983" lon="3.7892">
        <ele>76.26</ele>
        <time>2022-06-27T13:34:06.000Z</time>
      </trkpt>
      <trkpt lat="49.62974" lon="3.78927">
        <ele>76.26</ele>
        <time>2022-06-27T13:34:16.000Z</time>
      </trkpt>
      <trkpt lat="49.62955" lon="3.78935">
        <ele>76.26</ele>
        <time>2022-06-27T13:34:26.000Z</time>
      </trkpt>
      <trkpt lat="49.62937" lon="3.7893">
        <ele>76.26</ele>
        <time>2022-06-27T13:34:36.000Z</time>
      </trkpt>
      <trkpt lat="49.62924" lon="3.78933">
        <ele>76.26</ele>
        <time>2022-06-27T13:34:46.000Z</time>
      </trkpt>
      <trkpt lat="49.62906" lon="3.78933">
        <ele>76.26</ele>
        <time>2022-06-27T13:34:56.000Z</time>
      </trkpt>
      <trkpt lat="49.6289" lon="3.78934">
        <ele>76.26</ele>
        <time>2022-06-27T13:35:06.000Z</time>
      </trkpt>
      <trkpt lat="49.62872" lon="3.78938">
        <ele>73.86</ele>
        <time>2022-06-27T13:35:16.000Z</time>
      </trkpt>
      <trkpt lat="49.62853" lon="3.78943">
        <ele>73.86</ele>
        <time>2022-06-27T13:35:26.000Z</time>
      </trkpt>
      <trkpt lat="49.62843" lon="3.78948">
        <ele>73.86</ele>
        <time>2022-06-27T13:35:37.000Z</time>
      </trkpt>
      <trkpt lat="49.62838" lon="3.78955">
        <ele>73.86</ele>
        <time>2022-06-27T13:35:47.000Z</time>
      </trkpt>
      <trkpt lat="49.62831" lon="3.78955">
        <ele>73.86</ele>
        <time>2022-06-27T13:35:57.000Z</time>
      </trkpt>
      <trkpt lat="49.62823" lon="3.78957">
        <ele>73.86</ele>
        <time>2022-06-27T13:36:07.000Z</time>
      </trkpt>
      <trkpt lat="49.62812" lon="3.78955">
        <ele>73.86</ele>
        <time>2022-06-27T13:36:17.000Z</time>
      </trkpt>
      <trkpt lat="49.62799" lon="3.7893">
        <ele>73.86</ele>
        <time>2022-06-27T13:36:27.000Z</time>
      </trkpt>
      <trkpt lat="49.62792" lon="3.78916">
        <ele>73.86</ele>
        <time>2022-06-27T13:36:37.000Z</time>
      </trkpt>
      <trkpt lat="49.62781" lon="3.78905">
        <ele>73.86</ele>
        <time>2022-06-27T13:36:47.000Z</time>
      </trkpt>
      <trkpt lat="49.62768" lon="3.78903">
        <ele>73.86</ele>
        <time>2022-06-27T13:36:57.000Z</time>
      </trkpt>
      <trkpt lat="49.62753" lon="3.78904">
        <ele>73.86</ele>
        <time>2022-06-27T13:37:07.000Z</time>
      </trkpt>
      <trkpt lat="49.62746" lon="3.78904">
        <ele>73.86</ele>
        <time>2022-06-27T13:37:17.000Z</time>
      </trkpt>
      <trkpt lat="49.62733" lon="3.78904">
        <ele>73.86</ele>
        <time>2022-06-27T13:37:27.000Z</time>
      </trkpt>
      <trkpt lat="49.62721" lon="3.78903">
        <ele>73.86</ele>
        <time>2022-06-27T13:37:37.000Z</time>
      </trkpt>
      <trkpt lat="49.6271" lon="3.78902">
        <ele>73.86</ele>
        <time>2022-06-27T13:37:47.000Z</time>
      </trkpt>
      <trkpt lat="49.62698" lon="3.78901">
        <ele>73.86</ele>
        <time>2022-06-27T13:37:57.000Z</time>
      </trkpt>
      <trkpt lat="49.62683" lon="3.78899">
        <ele>79.14</ele>
        <time>2022-06-27T13:38:07.000Z</time>
      </trkpt>
      <trkpt lat="49.62674" lon="3.78896">
        <ele>78.93</ele>
        <time>2022-06-27T13:38:17.000Z</time>
      </trkpt>
      <trkpt lat="49.6266" lon="3.78893">
        <ele>78.77</ele>
        <time>2022-06-27T13:38:27.000Z</time>
      </trkpt>
      <trkpt lat="49.62645" lon="3.78889">
        <ele>78.34</ele>
        <time>2022-06-27T13:38:37.000Z</time>
      </trkpt>
      <trkpt lat="49.62635" lon="3.78889">
        <ele>77.3</ele>
        <time>2022-06-27T13:38:47.000Z</time>
      </trkpt>
      <trkpt lat="49.62624" lon="3.7889">
        <ele>76.29</ele>
        <time>2022-06-27T13:38:57.000Z</time>
      </trkpt>
      <trkpt lat="49.62609" lon="3.78895">
        <ele>75.76</ele>
        <time>2022-06-27T13:39:07.000Z</time>
      </trkpt>
      <trkpt lat="49.62594" lon="3.78897">
        <ele>75.18</ele>
        <time>2022-06-27T13:39:17.000Z</time>
      </trkpt>
      <trkpt lat="49.62583" lon="3.78896">
        <ele>74.49</ele>
        <time>2022-06-27T13:39:27.000Z</time>
      </trkpt>
      <trkpt lat="49.62573" lon="3.78898">
        <ele>73.35</ele>
        <time>2022-06-27T13:39:37.000Z</time>
      </trkpt>
      <trkpt lat="49.62561" lon="3.78898">
        <ele>71.81</ele>
        <time>2022-06-27T13:39:47.000Z</time>
      </trkpt>
      <trkpt lat="49.62549" lon="3.78898">
        <ele>69.95</ele>
        <time>2022-06-27T13:39:57.000Z</time>
      </trkpt>
      <trkpt lat="49.6254" lon="3.78906">
        <ele>68.48</ele>
        <time>2022-06-27T13:40:07.000Z</time>
      </trkpt>
      <trkpt lat="49.62524" lon="3.7891">
        <ele>67.13</ele>
        <time>2022-06-27T13:40:17.000Z</time>
      </trkpt>
      <trkpt lat="49.62506" lon="3.78919">
        <ele>65.01</ele>
        <time>2022-06-27T13:40:27.000Z</time>
      </trkpt>
      <trkpt lat="49.62495" lon="3.78925">
        <ele>63.19</ele>
        <time>2022-06-27T13:40:37.000Z</time>
      </trkpt>
      <trkpt lat="49.62489" lon="3.78919">
        <ele>61.8</ele>
        <time>2022-06-27T13:40:47.000Z</time>
      </trkpt>
      <trkpt lat="49.62477" lon="3.78922">
        <ele>60.1</ele>
        <time>2022-06-27T13:40:57.000Z</time>
      </trkpt>
      <trkpt lat="49.62463" lon="3.78923">
        <ele>59.27</ele>
        <time>2022-06-27T13:41:07.000Z</time>
      </trkpt>
      <trkpt lat="49.62447" lon="3.7892">
        <ele>58.64</ele>
        <time>2022-06-27T13:41:17.000Z</time>
      </trkpt>
      <trkpt lat="49.62435" lon="3.78922">
        <ele>58.24</ele>
        <time>2022-06-27T13:41:27.000Z</time>
      </trkpt>
      <trkpt lat="49.62423" lon="3.78922">
        <ele>59.04</ele>
        <time>2022-06-27T13:41:37.000Z</time>
      </trkpt>
      <trkpt lat="49.62415" lon="3.78924">
        <ele>60.27</ele>
        <time>2022-06-27T13:41:47.000Z</time>
      </trkpt>
      <trkpt lat="49.62404" lon="3.78927">
        <ele>60.92</ele>
        <time>2022-06-27T13:41:57.000Z</time>
      </trkpt>
      <trkpt lat="49.624" lon="3.7893">
        <ele>60.97</ele>
        <time>2022-06-27T13:42:07.000Z</time>
      </trkpt>
      <trkpt lat="49.62392" lon="3.78929">
        <ele>60.62</ele>
        <time>2022-06-27T13:42:17.000Z</time>
      </trkpt>
      <trkpt lat="49.62385" lon="3.78928">
        <ele>60.41</ele>
        <time>2022-06-27T13:42:27.000Z</time>
      </trkpt>
      <trkpt lat="49.62375" lon="3.78925">
        <ele>60.52</ele>
        <time>2022-06-27T13:42:37.000Z</time>
      </trkpt>
      <trkpt lat="49.62362" lon="3.78926">
        <ele>59.99</ele>
        <time>2022-06-27T13:42:47.000Z</time>
      </trkpt>
      <trkpt lat="49.62364" lon="3.78939">
        <ele>60.15</ele>
        <time>2022-06-27T13:42:57.000Z</time>
      </trkpt>
      <trkpt lat="49.62368" lon="3.78942">
        <ele>60.59</ele>
        <time>2022-06-27T13:43:07.000Z</time>
      </trkpt>
      <trkpt lat="49.62379" lon="3.78946">
        <ele>61.94</ele>
        <time>2022-06-27T13:43:17.000Z</time>
      </trkpt>
      <trkpt lat="49.62381" lon="3.78951">
        <ele>65.12</ele>
        <time>2022-06-27T13:43:27.000Z</time>
      </trkpt>
      <trkpt lat="49.6237" lon="3.78962">
        <ele>68.35</ele>
        <time>2022-06-27T13:43:37.000Z</time>
      </trkpt>
      <trkpt lat="49.62367" lon="3.78954">
        <ele>71.11</ele>
        <time>2022-06-27T13:43:47.000Z</time>
      </trkpt>
      <trkpt lat="49.62357" lon="3.78963">
        <ele>73.49</ele>
        <time>2022-06-27T13:43:57.000Z</time>
      </trkpt>
      <trkpt lat="49.62343" lon="3.78981">
        <ele>75.64</ele>
        <time>2022-06-27T13:44:07.000Z</time>
      </trkpt>
      <trkpt lat="49.62333" lon="3.78993">
        <ele>77.04</ele>
        <time>2022-06-27T13:44:17.000Z</time>
      </trkpt>
      <trkpt lat="49.62319" lon="3.79005">
        <ele>78.01</ele>
        <time>2022-06-27T13:44:27.000Z</time>
      </trkpt>
      <trkpt lat="49.62297" lon="3.79012">
        <ele>78.44</ele>
        <time>2022-06-27T13:44:37.000Z</time>
      </trkpt>
      <trkpt lat="49.62275" lon="3.79016">
        <ele>77.93</ele>
        <time>2022-06-27T13:44:47.000Z</time>
      </trkpt>
      <trkpt lat="49.62255" lon="3.79019">
        <ele>76.11</ele>
        <time>2022-06-27T13:44:57.000Z</time>
      </trkpt>
      <trkpt lat="49.62245" lon="3.79024">
        <ele>74.6</ele>
        <time>2022-06-27T13:45:07.000Z</time>
      </trkpt>
      <trkpt lat="49.6224" lon="3.79028">
        <ele>72.94</ele>
        <time>2022-06-27T13:45:17.000Z</time>
      </trkpt>
      <trkpt lat="49.62232" lon="3.79036">
        <ele>71.12</ele>
        <time>2022-06-27T13:45:27.000Z</time>
      </trkpt>
      <trkpt lat="49.62221" lon="3.79046">
        <ele>69.43</ele>
        <time>2022-06-27T13:45:37.000Z</time>
      </trkpt>
      <trkpt lat="49.62213" lon="3.79053">
        <ele>68.14</ele>
        <time>2022-06-27T13:45:47.000Z</time>
      </trkpt>
      <trkpt lat="49.62205" lon="3.79058">
        <ele>67.98</ele>
        <time>2022-06-27T13:45:57.000Z</time>
      </trkpt>
      <trkpt lat="49.62204" lon="3.79071">
        <ele>71.09</ele>
        <time>2022-06-27T13:46:07.000Z</time>
      </trkpt>
      <trkpt lat="49.62199" lon="3.7908">
        <ele>73.24</ele>
        <time>2022-06-27T13:46:17.000Z</time>
      </trkpt>
      <trkpt lat="49.62189" lon="3.79079">
        <ele>75.11</ele>
        <time>2022-06-27T13:46:27.000Z</time>
      </trkpt>
      <trkpt lat="49.62178" lon="3.79075">
        <ele>77.88</ele>
        <time>2022-06-27T13:46:37.000Z</time>
      </trkpt>
      <trkpt lat="49.62161" lon="3.79071">
        <ele>80.48</ele>
        <time>2022-06-27T13:46:47.000Z</time>
      </trkpt>
      <trkpt lat="49.62155" lon="3.79058">
        <ele>81.72</ele>
        <time>2022-06-27T13:46:57.000Z</time>
      </trkpt>
      <trkpt lat="49.6216" lon="3.79049">
        <ele>84.6</ele>
        <time>2022-06-27T13:47:07.000Z</time>
      </trkpt>
      <trkpt lat="49.62153" lon="3.79046">
        <ele>86.88</ele>
        <time>2022-06-27T13:47:17.000Z</time>
      </trkpt>
      <trkpt lat="49.62138" lon="3.79042">
        <ele>88.36</ele>
        <time>2022-06-27T13:47:27.000Z</time>
      </trkpt>
      <trkpt lat="49.62131" lon="3.79037">
        <ele>89.66</ele>
        <time>2022-06-27T13:47:37.000Z</time>
      </trkpt>
      <trkpt lat="49.62121" lon="3.79033">
        <ele>91.05</ele>
        <time>2022-06-27T13:47:47.000Z</time>
      </trkpt>
      <trkpt lat="49.62106" lon="3.79031">
        <ele>91.65</ele>
        <time>2022-06-27T13:47:57.000Z</time>
      </trkpt>
      <trkpt lat="49.62084" lon="3.79025">
        <ele>91.08</ele>
        <time>2022-06-27T13:48:07.000Z</time>
      </trkpt>
      <trkpt lat="49.62091" lon="3.79021">
        <ele>90.81</ele>
        <time>2022-06-27T13:48:17.000Z</time>
      </trkpt>
      <trkpt lat="49.62095" lon="3.79017">
        <ele>90.38</ele>
        <time>2022-06-27T13:48:27.000Z</time>
      </trkpt>
      <trkpt lat="49.62095" lon="3.79015">
        <ele>89.34</ele>
        <time>2022-06-27T13:48:37.000Z</time>
      </trkpt>
      <trkpt lat="49.62094" lon="3.79016">
        <ele>88.7</ele>
        <time>2022-06-27T13:48:48.000Z</time>
      </trkpt>
      <trkpt lat="49.62091" lon="3.79014">
        <ele>87.95</ele>
        <time>2022-06-27T13:48:58.000Z</time>
      </trkpt>
      <trkpt lat="49.62097" lon="3.79017">
        <ele>87.86</ele>
        <time>2022-06-27T13:49:08.000Z</time>
      </trkpt>
      <trkpt lat="49.62098" lon="3.7902">
        <ele>87.82</ele>
        <time>2022-06-27T13:49:18.000Z</time>
      </trkpt>
      <trkpt lat="49.62096" lon="3.7902">
        <ele>88.47</ele>
        <time>2022-06-27T13:50:00.000Z</time>
      </trkpt>
      <trkpt lat="49.62094" lon="3.79018">
        <ele>88.98</ele>
        <time>2022-06-27T13:50:10.000Z</time>
      </trkpt>
      <trkpt lat="49.62092" lon="3.79019">
        <ele>89.7</ele>
        <time>2022-06-27T13:50:23.000Z</time>
      </trkpt>
      <trkpt lat="49.62089" lon="3.79027">
        <ele>89.34</ele>
        <time>2022-06-27T13:50:33.000Z</time>
      </trkpt>
      <trkpt lat="49.62087" lon="3.7903">
        <ele>89.11</ele>
        <time>2022-06-27T13:50:43.000Z</time>
      </trkpt>
      <trkpt lat="49.62089" lon="3.79027">
        <ele>89.13</ele>
        <time>2022-06-27T13:50:53.000Z</time>
      </trkpt>
      <trkpt lat="49.62091" lon="3.79021">
        <ele>102.77</ele>
        <time>2022-06-27T13:54:54.000Z</time>
      </trkpt>
      <trkpt lat="49.62093" lon="3.79021">
        <ele>103.31</ele>
        <time>2022-06-27T13:55:04.000Z</time>
      </trkpt>
      <trkpt lat="49.62097" lon="3.79026">
        <ele>103.98</ele>
        <time>2022-06-27T13:55:14.000Z</time>
      </trkpt>
      <trkpt lat="49.62097" lon="3.79015">
        <ele>103.5</ele>
        <time>2022-06-27T13:55:24.000Z</time>
      </trkpt>
      <trkpt lat="49.62079" lon="3.79022">
        <ele>101.83</ele>
        <time>2022-06-27T13:55:35.000Z</time>
      </trkpt>
      <trkpt lat="49.62067" lon="3.79035">
        <ele>99.61</ele>
        <time>2022-06-27T13:55:45.000Z</time>
      </trkpt>
      <trkpt lat="49.62061" lon="3.79049">
        <ele>96.8</ele>
        <time>2022-06-27T13:55:55.000Z</time>
      </trkpt>
      <trkpt lat="49.62055" lon="3.79061">
        <ele>94.12</ele>
        <time>2022-06-27T13:56:05.000Z</time>
      </trkpt>
      <trkpt lat="49.62053" lon="3.7908">
        <ele>91.42</ele>
        <time>2022-06-27T13:56:15.000Z</time>
      </trkpt>
      <trkpt lat="49.62058" lon="3.79103">
        <ele>89.15</ele>
        <time>2022-06-27T13:56:25.000Z</time>
      </trkpt>
      <trkpt lat="49.62063" lon="3.79115">
        <ele>87.2</ele>
        <time>2022-06-27T13:56:35.000Z</time>
      </trkpt>
      <trkpt lat="49.6207" lon="3.79131">
        <ele>85.21</ele>
        <time>2022-06-27T13:56:46.000Z</time>
      </trkpt>
      <trkpt lat="49.62077" lon="3.79147">
        <ele>83.24</ele>
        <time>2022-06-27T13:56:56.000Z</time>
      </trkpt>
      <trkpt lat="49.62086" lon="3.79163">
        <ele>81.17</ele>
        <time>2022-06-27T13:57:06.000Z</time>
      </trkpt>
      <trkpt lat="49.62092" lon="3.79179">
        <ele>79.85</ele>
        <time>2022-06-27T13:57:16.000Z</time>
      </trkpt>
      <trkpt lat="49.62095" lon="3.79193">
        <ele>79.14</ele>
        <time>2022-06-27T13:57:26.000Z</time>
      </trkpt>
      <trkpt lat="49.621" lon="3.79209">
        <ele>78.41</ele>
        <time>2022-06-27T13:57:36.000Z</time>
      </trkpt>
      <trkpt lat="49.62102" lon="3.79223">
        <ele>78.27</ele>
        <time>2022-06-27T13:57:46.000Z</time>
      </trkpt>
      <trkpt lat="49.62108" lon="3.79237">
        <ele>78.29</ele>
        <time>2022-06-27T13:57:56.000Z</time>
      </trkpt>
      <trkpt lat="49.62105" lon="3.79247">
        <ele>78.29</ele>
        <time>2022-06-27T13:58:06.000Z</time>
      </trkpt>
      <trkpt lat="49.62102" lon="3.7925">
        <ele>78.36</ele>
        <time>2022-06-27T13:58:16.000Z</time>
      </trkpt>
      <trkpt lat="49.62105" lon="3.79264">
        <ele>78.41</ele>
        <time>2022-06-27T13:58:26.000Z</time>
      </trkpt>
      <trkpt lat="49.62108" lon="3.7928">
        <ele>78.59</ele>
        <time>2022-06-27T13:58:36.000Z</time>
      </trkpt>
      <trkpt lat="49.62113" lon="3.79296">
        <ele>78.3</ele>
        <time>2022-06-27T13:58:46.000Z</time>
      </trkpt>
      <trkpt lat="49.62125" lon="3.79323">
        <ele>78.36</ele>
        <time>2022-06-27T13:58:56.000Z</time>
      </trkpt>
      <trkpt lat="49.62132" lon="3.79338">
        <ele>78.36</ele>
        <time>2022-06-27T13:59:06.000Z</time>
      </trkpt>
      <trkpt lat="49.62137" lon="3.79352">
        <ele>78.41</ele>
        <time>2022-06-27T13:59:16.000Z</time>
      </trkpt>
      <trkpt lat="49.62138" lon="3.79366">
        <ele>78.89</ele>
        <time>2022-06-27T13:59:26.000Z</time>
      </trkpt>
      <trkpt lat="49.62141" lon="3.79385">
        <ele>79.91</ele>
        <time>2022-06-27T13:59:36.000Z</time>
      </trkpt>
      <trkpt lat="49.62144" lon="3.79399">
        <ele>81.37</ele>
        <time>2022-06-27T13:59:46.000Z</time>
      </trkpt>
      <trkpt lat="49.62149" lon="3.79409">
        <ele>83.21</ele>
        <time>2022-06-27T13:59:56.000Z</time>
      </trkpt>
      <trkpt lat="49.62153" lon="3.79422">
        <ele>83.62</ele>
        <time>2022-06-27T14:00:06.000Z</time>
      </trkpt>
      <trkpt lat="49.62158" lon="3.79438">
        <ele>83.72</ele>
        <time>2022-06-27T14:00:16.000Z</time>
      </trkpt>
      <trkpt lat="49.62162" lon="3.79454">
        <ele>83.77</ele>
        <time>2022-06-27T14:00:26.000Z</time>
      </trkpt>
      <trkpt lat="49.6216" lon="3.79461">
        <ele>83.4</ele>
        <time>2022-06-27T14:00:36.000Z</time>
      </trkpt>
      <trkpt lat="49.6216" lon="3.79466">
        <ele>82.92</ele>
        <time>2022-06-27T14:00:46.000Z</time>
      </trkpt>
      <trkpt lat="49.62162" lon="3.79472">
        <ele>82.78</ele>
        <time>2022-06-27T14:00:56.000Z</time>
      </trkpt>
      <trkpt lat="49.62161" lon="3.79481">
        <ele>82.83</ele>
        <time>2022-06-27T14:01:06.000Z</time>
      </trkpt>
      <trkpt lat="49.6216" lon="3.79484">
        <ele>83.13</ele>
        <time>2022-06-27T14:01:16.000Z</time>
      </trkpt>
      <trkpt lat="49.62162" lon="3.79493">
        <ele>83.32</ele>
        <time>2022-06-27T14:01:26.000Z</time>
      </trkpt>
      <trkpt lat="49.62164" lon="3.79502">
        <ele>83.66</ele>
        <time>2022-06-27T14:01:36.000Z</time>
      </trkpt>
      <trkpt lat="49.62165" lon="3.7951">
        <ele>83.9</ele>
        <time>2022-06-27T14:01:46.000Z</time>
      </trkpt>
      <trkpt lat="49.62164" lon="3.7952">
        <ele>84.33</ele>
        <time>2022-06-27T14:01:56.000Z</time>
      </trkpt>
      <trkpt lat="49.62165" lon="3.79529">
        <ele>85.1</ele>
        <time>2022-06-27T14:02:06.000Z</time>
      </trkpt>
      <trkpt lat="49.62165" lon="3.79541">
        <ele>85.87</ele>
        <time>2022-06-27T14:02:16.000Z</time>
      </trkpt>
      <trkpt lat="49.62167" lon="3.7955">
        <ele>86.26</ele>
        <time>2022-06-27T14:02:26.000Z</time>
      </trkpt>
      <trkpt lat="49.62169" lon="3.79564">
        <ele>86.33</ele>
        <time>2022-06-27T14:02:36.000Z</time>
      </trkpt>
      <trkpt lat="49.6217" lon="3.79575">
        <ele>85.98</ele>
        <time>2022-06-27T14:02:46.000Z</time>
      </trkpt>
      <trkpt lat="49.6217" lon="3.79585">
        <ele>85.43</ele>
        <time>2022-06-27T14:02:56.000Z</time>
      </trkpt>
      <trkpt lat="49.62173" lon="3.796">
        <ele>84.79</ele>
        <time>2022-06-27T14:03:06.000Z</time>
      </trkpt>
      <trkpt lat="49.62177" lon="3.79616">
        <ele>83.95</ele>
        <time>2022-06-27T14:03:16.000Z</time>
      </trkpt>
      <trkpt lat="49.62179" lon="3.79631">
        <ele>82.96</ele>
        <time>2022-06-27T14:03:26.000Z</time>
      </trkpt>
      <trkpt lat="49.62182" lon="3.79651">
        <ele>82.7</ele>
        <time>2022-06-27T14:03:36.000Z</time>
      </trkpt>
      <trkpt lat="49.62188" lon="3.79657">
        <ele>82.91</ele>
        <time>2022-06-27T14:03:46.000Z</time>
      </trkpt>
      <trkpt lat="49.62188" lon="3.79659">
        <ele>82.89</ele>
        <time>2022-06-27T14:03:56.000Z</time>
      </trkpt>
      <trkpt lat="49.62191" lon="3.79666">
        <ele>82.97</ele>
        <time>2022-06-27T14:04:06.000Z</time>
      </trkpt>
      <trkpt lat="49.62202" lon="3.7966">
        <ele>82.54</ele>
        <time>2022-06-27T14:04:16.000Z</time>
      </trkpt>
      <trkpt lat="49.62214" lon="3.79658">
        <ele>81.81</ele>
        <time>2022-06-27T14:04:26.000Z</time>
      </trkpt>
      <trkpt lat="49.62221" lon="3.79654">
        <ele>81.4</ele>
        <time>2022-06-27T14:04:36.000Z</time>
      </trkpt>
      <trkpt lat="49.62222" lon="3.79652">
        <ele>81.11</ele>
        <time>2022-06-27T14:04:46.000Z</time>
      </trkpt>
      <trkpt lat="49.62237" lon="3.79651">
        <ele>81.54</ele>
        <time>2022-06-27T14:04:56.000Z</time>
      </trkpt>
      <trkpt lat="49.62248" lon="3.79645">
        <ele>82.37</ele>
        <time>2022-06-27T14:05:06.000Z</time>
      </trkpt>
      <trkpt lat="49.62247" lon="3.79641">
        <ele>82.47</ele>
        <time>2022-06-27T14:05:16.000Z</time>
      </trkpt>
      <trkpt lat="49.62246" lon="3.79639">
        <ele>82.79</ele>
        <time>2022-06-27T14:05:26.000Z</time>
      </trkpt>
      <trkpt lat="49.62247" lon="3.79637">
        <ele>82.9</ele>
        <time>2022-06-27T14:05:36.000Z</time>
      </trkpt>
      <trkpt lat="49.62252" lon="3.79632">
        <ele>83.24</ele>
        <time>2022-06-27T14:05:46.000Z</time>
      </trkpt>
      <trkpt lat="49.62252" lon="3.79634">
        <ele>83.35</ele>
        <time>2022-06-27T14:05:56.000Z</time>
      </trkpt>
      <trkpt lat="49.62254" lon="3.79635">
        <ele>81.68</ele>
        <time>2022-06-27T14:06:28.000Z</time>
      </trkpt>
      <trkpt lat="49.62258" lon="3.79638">
        <ele>80.21</ele>
        <time>2022-06-27T14:06:38.000Z</time>
      </trkpt>
      <trkpt lat="49.62257" lon="3.79638">
        <ele>79.87</ele>
        <time>2022-06-27T14:06:49.000Z</time>
      </trkpt>
      <trkpt lat="49.62257" lon="3.79635">
        <ele>79.55</ele>
        <time>2022-06-27T14:06:59.000Z</time>
      </trkpt>
      <trkpt lat="49.62256" lon="3.79634">
        <ele>79.46</ele>
        <time>2022-06-27T14:07:09.000Z</time>
      </trkpt>
      <trkpt lat="49.62255" lon="3.79635">
        <ele>78.54</ele>
        <time>2022-06-27T14:07:43.000Z</time>
      </trkpt>
      <trkpt lat="49.62255" lon="3.79632">
        <ele>78.65</ele>
        <time>2022-06-27T14:07:53.000Z</time>
      </trkpt>
      <trkpt lat="49.62256" lon="3.79635">
        <ele>79.02</ele>
        <time>2022-06-27T14:08:03.000Z</time>
      </trkpt>
      <trkpt lat="49.62256" lon="3.79636">
        <ele>79.49</ele>
        <time>2022-06-27T14:08:14.000Z</time>
      </trkpt>
      <trkpt lat="49.62254" lon="3.79636">
        <ele>81.09</ele>
        <time>2022-06-27T14:08:24.000Z</time>
      </trkpt>
      <trkpt lat="49.62242" lon="3.79638">
        <ele>82.39</ele>
        <time>2022-06-27T14:08:34.000Z</time>
      </trkpt>
      <trkpt lat="49.62233" lon="3.79639">
        <ele>82.87</ele>
        <time>2022-06-27T14:08:44.000Z</time>
      </trkpt>
      <trkpt lat="49.62228" lon="3.7964">
        <ele>83.1</ele>
        <time>2022-06-27T14:08:54.000Z</time>
      </trkpt>
      <trkpt lat="49.62219" lon="3.79643">
        <ele>83.21</ele>
        <time>2022-06-27T14:09:04.000Z</time>
      </trkpt>
      <trkpt lat="49.62211" lon="3.79651">
        <ele>83.41</ele>
        <time>2022-06-27T14:09:14.000Z</time>
      </trkpt>
      <trkpt lat="49.62204" lon="3.79654">
        <ele>83.36</ele>
        <time>2022-06-27T14:09:24.000Z</time>
      </trkpt>
      <trkpt lat="49.62195" lon="3.79656">
        <ele>83.29</ele>
        <time>2022-06-27T14:09:34.000Z</time>
      </trkpt>
      <trkpt lat="49.62187" lon="3.7966">
        <ele>83.18</ele>
        <time>2022-06-27T14:09:44.000Z</time>
      </trkpt>
      <trkpt lat="49.6218" lon="3.79656">
        <ele>82.85</ele>
        <time>2022-06-27T14:09:54.000Z</time>
      </trkpt>
      <trkpt lat="49.6218" lon="3.79639">
        <ele>82.28</ele>
        <time>2022-06-27T14:10:04.000Z</time>
      </trkpt>
      <trkpt lat="49.6218" lon="3.79632">
        <ele>82.03</ele>
        <time>2022-06-27T14:10:14.000Z</time>
      </trkpt>
      <trkpt lat="49.62179" lon="3.7963">
        <ele>82.04</ele>
        <time>2022-06-27T14:10:29.000Z</time>
      </trkpt>
      <trkpt lat="49.62178" lon="3.79625">
        <ele>82.06</ele>
        <time>2022-06-27T14:10:39.000Z</time>
      </trkpt>
      <trkpt lat="49.62178" lon="3.79624">
        <ele>81.84</ele>
        <time>2022-06-27T14:10:49.000Z</time>
      </trkpt>
      <trkpt lat="49.62178" lon="3.79622">
        <ele>81.32</ele>
        <time>2022-06-27T14:11:15.000Z</time>
      </trkpt>
      <trkpt lat="49.62176" lon="3.79609">
        <ele>80.61</ele>
        <time>2022-06-27T14:11:25.000Z</time>
      </trkpt>
      <trkpt lat="49.62173" lon="3.79593">
        <ele>80.42</ele>
        <time>2022-06-27T14:11:35.000Z</time>
      </trkpt>
      <trkpt lat="49.62171" lon="3.7959">
        <ele>80.71</ele>
        <time>2022-06-27T14:11:45.000Z</time>
      </trkpt>
      <trkpt lat="49.62173" lon="3.79581">
        <ele>81.04</ele>
        <time>2022-06-27T14:11:55.000Z</time>
      </trkpt>
      <trkpt lat="49.62171" lon="3.79564">
        <ele>81.16</ele>
        <time>2022-06-27T14:12:05.000Z</time>
      </trkpt>
      <trkpt lat="49.62167" lon="3.79553">
        <ele>81.03</ele>
        <time>2022-06-27T14:12:15.000Z</time>
      </trkpt>
      <trkpt lat="49.62167" lon="3.79541">
        <ele>80.76</ele>
        <time>2022-06-27T14:12:25.000Z</time>
      </trkpt>
      <trkpt lat="49.62168" lon="3.79532">
        <ele>81.15</ele>
        <time>2022-06-27T14:12:35.000Z</time>
      </trkpt>
      <trkpt lat="49.62163" lon="3.79517">
        <ele>81.78</ele>
        <time>2022-06-27T14:12:45.000Z</time>
      </trkpt>
      <trkpt lat="49.62162" lon="3.79513">
        <ele>82.65</ele>
        <time>2022-06-27T14:12:55.000Z</time>
      </trkpt>
      <trkpt lat="49.62162" lon="3.79504">
        <ele>83.72</ele>
        <time>2022-06-27T14:13:05.000Z</time>
      </trkpt>
      <trkpt lat="49.62161" lon="3.795">
        <ele>83.46</ele>
        <time>2022-06-27T14:13:15.000Z</time>
      </trkpt>
      <trkpt lat="49.62162" lon="3.79492">
        <ele>82.72</ele>
        <time>2022-06-27T14:13:25.000Z</time>
      </trkpt>
      <trkpt lat="49.62162" lon="3.79481">
        <ele>82.27</ele>
        <time>2022-06-27T14:13:35.000Z</time>
      </trkpt>
      <trkpt lat="49.62161" lon="3.79469">
        <ele>81.86</ele>
        <time>2022-06-27T14:13:45.000Z</time>
      </trkpt>
      <trkpt lat="49.62158" lon="3.79456">
        <ele>81.65</ele>
        <time>2022-06-27T14:13:55.000Z</time>
      </trkpt>
      <trkpt lat="49.62154" lon="3.7944">
        <ele>81.56</ele>
        <time>2022-06-27T14:14:05.000Z</time>
      </trkpt>
      <trkpt lat="49.6215" lon="3.79425">
        <ele>81.17</ele>
        <time>2022-06-27T14:14:15.000Z</time>
      </trkpt>
      <trkpt lat="49.62145" lon="3.7941">
        <ele>80.71</ele>
        <time>2022-06-27T14:14:25.000Z</time>
      </trkpt>
      <trkpt lat="49.62141" lon="3.79394">
        <ele>80.17</ele>
        <time>2022-06-27T14:14:35.000Z</time>
      </trkpt>
      <trkpt lat="49.62137" lon="3.79378">
        <ele>80.03</ele>
        <time>2022-06-27T14:14:45.000Z</time>
      </trkpt>
      <trkpt lat="49.62134" lon="3.79362">
        <ele>79.88</ele>
        <time>2022-06-27T14:14:55.000Z</time>
      </trkpt>
      <trkpt lat="49.6213" lon="3.79347">
        <ele>79.49</ele>
        <time>2022-06-27T14:15:05.000Z</time>
      </trkpt>
      <trkpt lat="49.62126" lon="3.7933">
        <ele>79.61</ele>
        <time>2022-06-27T14:15:15.000Z</time>
      </trkpt>
      <trkpt lat="49.62125" lon="3.79315">
        <ele>80.25</ele>
        <time>2022-06-27T14:15:25.000Z</time>
      </trkpt>
      <trkpt lat="49.62117" lon="3.79305">
        <ele>80.97</ele>
        <time>2022-06-27T14:15:35.000Z</time>
      </trkpt>
      <trkpt lat="49.62111" lon="3.79294">
        <ele>81</ele>
        <time>2022-06-27T14:15:45.000Z</time>
      </trkpt>
      <trkpt lat="49.62108" lon="3.79275">
        <ele>80.13</ele>
        <time>2022-06-27T14:15:55.000Z</time>
      </trkpt>
      <trkpt lat="49.62108" lon="3.79251">
        <ele>79.69</ele>
        <time>2022-06-27T14:16:05.000Z</time>
      </trkpt>
      <trkpt lat="49.62107" lon="3.79234">
        <ele>80.14</ele>
        <time>2022-06-27T14:16:15.000Z</time>
      </trkpt>
      <trkpt lat="49.62103" lon="3.79221">
        <ele>81.04</ele>
        <time>2022-06-27T14:16:25.000Z</time>
      </trkpt>
      <trkpt lat="49.62095" lon="3.792">
        <ele>81.65</ele>
        <time>2022-06-27T14:16:35.000Z</time>
      </trkpt>
      <trkpt lat="49.62083" lon="3.79189">
        <ele>82.37</ele>
        <time>2022-06-27T14:16:45.000Z</time>
      </trkpt>
      <trkpt lat="49.62077" lon="3.79182">
        <ele>83.56</ele>
        <time>2022-06-27T14:16:55.000Z</time>
      </trkpt>
      <trkpt lat="49.62078" lon="3.79174">
        <ele>84.9</ele>
        <time>2022-06-27T14:17:05.000Z</time>
      </trkpt>
      <trkpt lat="49.62073" lon="3.79161">
        <ele>86.08</ele>
        <time>2022-06-27T14:17:15.000Z</time>
      </trkpt>
      <trkpt lat="49.62069" lon="3.79133">
        <ele>86.66</ele>
        <time>2022-06-27T14:17:26.000Z</time>
      </trkpt>
      <trkpt lat="49.62062" lon="3.79115">
        <ele>86.84</ele>
        <time>2022-06-27T14:17:36.000Z</time>
      </trkpt>
      <trkpt lat="49.62056" lon="3.79099">
        <ele>86.74</ele>
        <time>2022-06-27T14:17:46.000Z</time>
      </trkpt>
      <trkpt lat="49.62054" lon="3.79084">
        <ele>86.37</ele>
        <time>2022-06-27T14:17:56.000Z</time>
      </trkpt>
      <trkpt lat="49.62059" lon="3.79063">
        <ele>85.67</ele>
        <time>2022-06-27T14:18:07.000Z</time>
      </trkpt>
      <trkpt lat="49.62067" lon="3.79044">
        <ele>85.13</ele>
        <time>2022-06-27T14:18:17.000Z</time>
      </trkpt>
      <trkpt lat="49.62076" lon="3.79026">
        <ele>84.45</ele>
        <time>2022-06-27T14:18:27.000Z</time>
      </trkpt>
      <trkpt lat="49.62082" lon="3.79013">
        <ele>83.4</ele>
        <time>2022-06-27T14:18:37.000Z</time>
      </trkpt>
      <trkpt lat="49.62084" lon="3.79017">
        <ele>82.89</ele>
        <time>2022-06-27T14:18:47.000Z</time>
      </trkpt>
      <trkpt lat="49.62085" lon="3.79018">
        <ele>82.07</ele>
        <time>2022-06-27T14:18:57.000Z</time>
      </trkpt>
      <trkpt lat="49.62093" lon="3.79014">
        <ele>81.76</ele>
        <time>2022-06-27T14:19:07.000Z</time>
      </trkpt>
      <trkpt lat="49.62093" lon="3.79017">
        <ele>81.86</ele>
        <time>2022-06-27T14:19:17.000Z</time>
      </trkpt>
      <trkpt lat="49.62092" lon="3.79018">
        <ele>82.04</ele>
        <time>2022-06-27T14:19:27.000Z</time>
      </trkpt>
      <trkpt lat="49.62094" lon="3.79014">
        <ele>82.13</ele>
        <time>2022-06-27T14:19:37.000Z</time>
      </trkpt>
      <trkpt lat="49.62087" lon="3.78997">
        <ele>82.48</ele>
        <time>2022-06-27T14:19:47.000Z</time>
      </trkpt>
      <trkpt lat="49.62084" lon="3.7899">
        <ele>83.14</ele>
        <time>2022-06-27T14:19:57.000Z</time>
      </trkpt>
      <trkpt lat="49.62085" lon="3.78976">
        <ele>83.94</ele>
        <time>2022-06-27T14:20:07.000Z</time>
      </trkpt>
      <trkpt lat="49.62082" lon="3.78955">
        <ele>84.63</ele>
        <time>2022-06-27T14:20:17.000Z</time>
      </trkpt>
      <trkpt lat="49.62079" lon="3.78937">
        <ele>85.15</ele>
        <time>2022-06-27T14:20:27.000Z</time>
      </trkpt>
      <trkpt lat="49.62071" lon="3.78936">
        <ele>85.68</ele>
        <time>2022-06-27T14:20:37.000Z</time>
      </trkpt>
      <trkpt lat="49.62064" lon="3.78941">
        <ele>85.24</ele>
        <time>2022-06-27T14:20:47.000Z</time>
      </trkpt>
      <trkpt lat="49.62051" lon="3.78945">
        <ele>84.01</ele>
        <time>2022-06-27T14:20:58.000Z</time>
      </trkpt>
      <trkpt lat="49.62043" lon="3.78953">
        <ele>82.76</ele>
        <time>2022-06-27T14:21:08.000Z</time>
      </trkpt>
      <trkpt lat="49.62039" lon="3.78962">
        <ele>81.8</ele>
        <time>2022-06-27T14:21:18.000Z</time>
      </trkpt>
      <trkpt lat="49.62035" lon="3.78971">
        <ele>80.93</ele>
        <time>2022-06-27T14:21:28.000Z</time>
      </trkpt>
      <trkpt lat="49.6203" lon="3.78982">
        <ele>80.1</ele>
        <time>2022-06-27T14:21:38.000Z</time>
      </trkpt>
      <trkpt lat="49.62024" lon="3.78985">
        <ele>79.61</ele>
        <time>2022-06-27T14:21:48.000Z</time>
      </trkpt>
      <trkpt lat="49.62018" lon="3.78995">
        <ele>79.17</ele>
        <time>2022-06-27T14:21:58.000Z</time>
      </trkpt>
      <trkpt lat="49.62012" lon="3.79009">
        <ele>78.72</ele>
        <time>2022-06-27T14:22:08.000Z</time>
      </trkpt>
      <trkpt lat="49.62007" lon="3.7902">
        <ele>78.07</ele>
        <time>2022-06-27T14:22:19.000Z</time>
      </trkpt>
      <trkpt lat="49.62001" lon="3.79034">
        <ele>77.06</ele>
        <time>2022-06-27T14:22:29.000Z</time>
      </trkpt>
      <trkpt lat="49.61998" lon="3.79057">
        <ele>75.78</ele>
        <time>2022-06-27T14:22:39.000Z</time>
      </trkpt>
      <trkpt lat="49.61993" lon="3.79079">
        <ele>74.81</ele>
        <time>2022-06-27T14:22:49.000Z</time>
      </trkpt>
      <trkpt lat="49.6199" lon="3.79093">
        <ele>73.99</ele>
        <time>2022-06-27T14:22:59.000Z</time>
      </trkpt>
      <trkpt lat="49.61985" lon="3.79109">
        <ele>73.36</ele>
        <time>2022-06-27T14:23:09.000Z</time>
      </trkpt>
      <trkpt lat="49.61983" lon="3.79118">
        <ele>72.89</ele>
        <time>2022-06-27T14:23:19.000Z</time>
      </trkpt>
      <trkpt lat="49.61981" lon="3.79127">
        <ele>72.59</ele>
        <time>2022-06-27T14:23:29.000Z</time>
      </trkpt>
      <trkpt lat="49.61979" lon="3.79143">
        <ele>72.43</ele>
        <time>2022-06-27T14:23:38.999Z</time>
      </trkpt>
      <trkpt lat="49.61975" lon="3.79159">
        <ele>71.75</ele>
        <time>2022-06-27T14:23:48.999Z</time>
      </trkpt>
      <trkpt lat="49.61974" lon="3.79173">
        <ele>71.39</ele>
        <time>2022-06-27T14:23:58.999Z</time>
      </trkpt>
      <trkpt lat="49.61972" lon="3.79186">
        <ele>71.33</ele>
        <time>2022-06-27T14:24:08.999Z</time>
      </trkpt>
      <trkpt lat="49.6197" lon="3.79202">
        <ele>71.24</ele>
        <time>2022-06-27T14:24:18.999Z</time>
      </trkpt>
      <trkpt lat="49.61967" lon="3.79212">
        <ele>71.31</ele>
        <time>2022-06-27T14:24:28.999Z</time>
      </trkpt>
      <trkpt lat="49.61961" lon="3.79221">
        <ele>71.58</ele>
        <time>2022-06-27T14:24:38.999Z</time>
      </trkpt>
      <trkpt lat="49.61951" lon="3.7923">
        <ele>71.94</ele>
        <time>2022-06-27T14:24:48.999Z</time>
      </trkpt>
      <trkpt lat="49.61942" lon="3.79234">
        <ele>72.58</ele>
        <time>2022-06-27T14:24:58.999Z</time>
      </trkpt>
      <trkpt lat="49.61934" lon="3.79229">
        <ele>72.9</ele>
        <time>2022-06-27T14:25:08.999Z</time>
      </trkpt>
      <trkpt lat="49.61924" lon="3.79229">
        <ele>73.16</ele>
        <time>2022-06-27T14:25:18.999Z</time>
      </trkpt>
      <trkpt lat="49.61918" lon="3.7923">
        <ele>73.79</ele>
        <time>2022-06-27T14:25:28.999Z</time>
      </trkpt>
      <trkpt lat="49.61907" lon="3.79229">
        <ele>74.58</ele>
        <time>2022-06-27T14:25:38.999Z</time>
      </trkpt>
      <trkpt lat="49.61895" lon="3.79233">
        <ele>75.26</ele>
        <time>2022-06-27T14:25:48.999Z</time>
      </trkpt>
      <trkpt lat="49.6189" lon="3.79234">
        <ele>75.59</ele>
        <time>2022-06-27T14:25:58.999Z</time>
      </trkpt>
      <trkpt lat="49.61879" lon="3.79239">
        <ele>75.62</ele>
        <time>2022-06-27T14:26:08.999Z</time>
      </trkpt>
      <trkpt lat="49.6187" lon="3.79247">
        <ele>75.58</ele>
        <time>2022-06-27T14:26:18.999Z</time>
      </trkpt>
      <trkpt lat="49.61868" lon="3.7925">
        <ele>75.62</ele>
        <time>2022-06-27T14:26:28.999Z</time>
      </trkpt>
      <trkpt lat="49.61863" lon="3.79257">
        <ele>75.37</ele>
        <time>2022-06-27T14:26:38.999Z</time>
      </trkpt>
      <trkpt lat="49.61855" lon="3.79268">
        <ele>74.99</ele>
        <time>2022-06-27T14:26:48.999Z</time>
      </trkpt>
      <trkpt lat="49.61852" lon="3.79286">
        <ele>74.79</ele>
        <time>2022-06-27T14:26:58.999Z</time>
      </trkpt>
      <trkpt lat="49.61847" lon="3.79298">
        <ele>75.03</ele>
        <time>2022-06-27T14:27:08.999Z</time>
      </trkpt>
      <trkpt lat="49.61841" lon="3.79312">
        <ele>74.84</ele>
        <time>2022-06-27T14:27:18.999Z</time>
      </trkpt>
      <trkpt lat="49.61834" lon="3.79329">
        <ele>74.13</ele>
        <time>2022-06-27T14:27:28.999Z</time>
      </trkpt>
      <trkpt lat="49.61823" lon="3.79339">
        <ele>73.09</ele>
        <time>2022-06-27T14:27:38.999Z</time>
      </trkpt>
      <trkpt lat="49.61812" lon="3.79341">
        <ele>72.69</ele>
        <time>2022-06-27T14:27:48.999Z</time>
      </trkpt>
      <trkpt lat="49.618" lon="3.79343">
        <ele>72.45</ele>
        <time>2022-06-27T14:27:58.999Z</time>
      </trkpt>
      <trkpt lat="49.6179" lon="3.79341">
        <ele>72.36</ele>
        <time>2022-06-27T14:28:08.999Z</time>
      </trkpt>
      <trkpt lat="49.61782" lon="3.79341">
        <ele>72.41</ele>
        <time>2022-06-27T14:28:18.999Z</time>
      </trkpt>
      <trkpt lat="49.6177" lon="3.79344">
        <ele>72.51</ele>
        <time>2022-06-27T14:28:28.999Z</time>
      </trkpt>
      <trkpt lat="49.61761" lon="3.79349">
        <ele>72.88</ele>
        <time>2022-06-27T14:28:38.999Z</time>
      </trkpt>
      <trkpt lat="49.61751" lon="3.79355">
        <ele>73.25</ele>
        <time>2022-06-27T14:28:48.999Z</time>
      </trkpt>
      <trkpt lat="49.61744" lon="3.79358">
        <ele>73.7</ele>
        <time>2022-06-27T14:28:58.999Z</time>
      </trkpt>
      <trkpt lat="49.61736" lon="3.79361">
        <ele>73.73</ele>
        <time>2022-06-27T14:29:08.999Z</time>
      </trkpt>
      <trkpt lat="49.61728" lon="3.79363">
        <ele>73.39</ele>
        <time>2022-06-27T14:29:18.999Z</time>
      </trkpt>
      <trkpt lat="49.61718" lon="3.79368">
        <ele>73.16</ele>
        <time>2022-06-27T14:29:28.999Z</time>
      </trkpt>
      <trkpt lat="49.61709" lon="3.7937">
        <ele>72.88</ele>
        <time>2022-06-27T14:29:38.999Z</time>
      </trkpt>
      <trkpt lat="49.61699" lon="3.79361">
        <ele>72.73</ele>
        <time>2022-06-27T14:29:48.999Z</time>
      </trkpt>
      <trkpt lat="49.61699" lon="3.79346">
        <ele>73.08</ele>
        <time>2022-06-27T14:29:58.999Z</time>
      </trkpt>
      <trkpt lat="49.61699" lon="3.79344">
        <ele>73.49</ele>
        <time>2022-06-27T14:30:08.999Z</time>
      </trkpt>
      <trkpt lat="49.61699" lon="3.79342">
        <ele>74.17</ele>
        <time>2022-06-27T14:30:18.999Z</time>
      </trkpt>
      <trkpt lat="49.61703" lon="3.7933">
        <ele>74.93</ele>
        <time>2022-06-27T14:30:28.999Z</time>
      </trkpt>
      <trkpt lat="49.617" lon="3.79315">
        <ele>75.82</ele>
        <time>2022-06-27T14:30:38.999Z</time>
      </trkpt>
      <trkpt lat="49.61696" lon="3.79296">
        <ele>76.68</ele>
        <time>2022-06-27T14:30:48.999Z</time>
      </trkpt>
      <trkpt lat="49.61692" lon="3.79282">
        <ele>76.88</ele>
        <time>2022-06-27T14:30:58.999Z</time>
      </trkpt>
      <trkpt lat="49.61689" lon="3.79263">
        <ele>76.3</ele>
        <time>2022-06-27T14:31:08.999Z</time>
      </trkpt>
      <trkpt lat="49.61686" lon="3.79242">
        <ele>76.14</ele>
        <time>2022-06-27T14:31:18.999Z</time>
      </trkpt>
      <trkpt lat="49.61684" lon="3.79231">
        <ele>77.35</ele>
        <time>2022-06-27T14:31:28.999Z</time>
      </trkpt>
      <trkpt lat="49.61678" lon="3.79226">
        <ele>78.23</ele>
        <time>2022-06-27T14:31:38.999Z</time>
      </trkpt>
      <trkpt lat="49.61668" lon="3.79227">
        <ele>77.99</ele>
        <time>2022-06-27T14:31:48.999Z</time>
      </trkpt>
      <trkpt lat="49.61658" lon="3.79232">
        <ele>77.74</ele>
        <time>2022-06-27T14:31:58.999Z</time>
      </trkpt>
      <trkpt lat="49.61648" lon="3.79237">
        <ele>77.34</ele>
        <time>2022-06-27T14:32:08.999Z</time>
      </trkpt>
      <trkpt lat="49.61638" lon="3.7924">
        <ele>76.95</ele>
        <time>2022-06-27T14:32:18.999Z</time>
      </trkpt>
      <trkpt lat="49.6163" lon="3.79248">
        <ele>76.45</ele>
        <time>2022-06-27T14:32:28.999Z</time>
      </trkpt>
      <trkpt lat="49.61623" lon="3.79249">
        <ele>76.19</ele>
        <time>2022-06-27T14:32:38.999Z</time>
      </trkpt>
      <trkpt lat="49.61615" lon="3.79251">
        <ele>76.27</ele>
        <time>2022-06-27T14:32:48.999Z</time>
      </trkpt>
      <trkpt lat="49.61605" lon="3.79254">
        <ele>76.2</ele>
        <time>2022-06-27T14:32:58.999Z</time>
      </trkpt>
      <trkpt lat="49.61595" lon="3.79256">
        <ele>76.3</ele>
        <time>2022-06-27T14:33:08.999Z</time>
      </trkpt>
      <trkpt lat="49.61585" lon="3.79258">
        <ele>76.51</ele>
        <time>2022-06-27T14:33:18.999Z</time>
      </trkpt>
      <trkpt lat="49.61575" lon="3.79257">
        <ele>76.81</ele>
        <time>2022-06-27T14:33:28.999Z</time>
      </trkpt>
      <trkpt lat="49.61566" lon="3.79259">
        <ele>76.93</ele>
        <time>2022-06-27T14:33:38.999Z</time>
      </trkpt>
      <trkpt lat="49.61559" lon="3.79257">
        <ele>76.84</ele>
        <time>2022-06-27T14:33:48.999Z</time>
      </trkpt>
      <trkpt lat="49.61552" lon="3.79266">
        <ele>76.81</ele>
        <time>2022-06-27T14:33:58.999Z</time>
      </trkpt>
      <trkpt lat="49.61543" lon="3.79267">
        <ele>77.05</ele>
        <time>2022-06-27T14:34:08.999Z</time>
      </trkpt>
      <trkpt lat="49.61529" lon="3.79277">
        <ele>76.62</ele>
        <time>2022-06-27T14:34:18.999Z</time>
      </trkpt>
      <trkpt lat="49.61515" lon="3.7929">
        <ele>75.11</ele>
        <time>2022-06-27T14:34:28.999Z</time>
      </trkpt>
      <trkpt lat="49.61502" lon="3.79304">
        <ele>73.27</ele>
        <time>2022-06-27T14:34:38.999Z</time>
      </trkpt>
      <trkpt lat="49.61489" lon="3.79311">
        <ele>71.69</ele>
        <time>2022-06-27T14:34:48.999Z</time>
      </trkpt>
      <trkpt lat="49.6148" lon="3.79306">
        <ele>71.2</ele>
        <time>2022-06-27T14:34:58.999Z</time>
      </trkpt>
      <trkpt lat="49.61466" lon="3.79302">
        <ele>71.23</ele>
        <time>2022-06-27T14:35:08.999Z</time>
      </trkpt>
      <trkpt lat="49.61454" lon="3.79295">
        <ele>71.44</ele>
        <time>2022-06-27T14:35:18.999Z</time>
      </trkpt>
      <trkpt lat="49.6144" lon="3.79289">
        <ele>71.38</ele>
        <time>2022-06-27T14:35:28.999Z</time>
      </trkpt>
      <trkpt lat="49.61434" lon="3.79288">
        <ele>71.49</ele>
        <time>2022-06-27T14:35:38.999Z</time>
      </trkpt>
      <trkpt lat="49.61424" lon="3.79286">
        <ele>72.1</ele>
        <time>2022-06-27T14:35:48.999Z</time>
      </trkpt>
      <trkpt lat="49.61414" lon="3.79284">
        <ele>72.64</ele>
        <time>2022-06-27T14:35:58.999Z</time>
      </trkpt>
      <trkpt lat="49.61403" lon="3.79286">
        <ele>72.83</ele>
        <time>2022-06-27T14:36:08.999Z</time>
      </trkpt>
      <trkpt lat="49.61388" lon="3.79286">
        <ele>73.09</ele>
        <time>2022-06-27T14:36:18.999Z</time>
      </trkpt>
      <trkpt lat="49.61376" lon="3.79283">
        <ele>73.75</ele>
        <time>2022-06-27T14:36:28.999Z</time>
      </trkpt>
      <trkpt lat="49.61372" lon="3.79275">
        <ele>74.96</ele>
        <time>2022-06-27T14:36:38.999Z</time>
      </trkpt>
      <trkpt lat="49.61364" lon="3.79277">
        <ele>75.93</ele>
        <time>2022-06-27T14:36:48.999Z</time>
      </trkpt>
      <trkpt lat="49.61354" lon="3.79277">
        <ele>76.88</ele>
        <time>2022-06-27T14:36:58.999Z</time>
      </trkpt>
      <trkpt lat="49.6134" lon="3.79276">
        <ele>77.8</ele>
        <time>2022-06-27T14:37:08.999Z</time>
      </trkpt>
      <trkpt lat="49.61323" lon="3.79268">
        <ele>77.84</ele>
        <time>2022-06-27T14:37:18.999Z</time>
      </trkpt>
      <trkpt lat="49.61315" lon="3.79258">
        <ele>77.75</ele>
        <time>2022-06-27T14:37:28.999Z</time>
      </trkpt>
      <trkpt lat="49.61307" lon="3.79247">
        <ele>77.75</ele>
        <time>2022-06-27T14:37:38.999Z</time>
      </trkpt>
      <trkpt lat="49.61298" lon="3.79243">
        <ele>77.89</ele>
        <time>2022-06-27T14:37:49.999Z</time>
      </trkpt>
      <trkpt lat="49.61291" lon="3.79236">
        <ele>78.54</ele>
        <time>2022-06-27T14:37:59.999Z</time>
      </trkpt>
      <trkpt lat="49.61287" lon="3.79228">
        <ele>78.96</ele>
        <time>2022-06-27T14:38:09.999Z</time>
      </trkpt>
      <trkpt lat="49.61281" lon="3.79215">
        <ele>79.31</ele>
        <time>2022-06-27T14:38:19.999Z</time>
      </trkpt>
      <trkpt lat="49.61277" lon="3.79203">
        <ele>80.29</ele>
        <time>2022-06-27T14:38:29.999Z</time>
      </trkpt>
      <trkpt lat="49.61274" lon="3.79192">
        <ele>81.22</ele>
        <time>2022-06-27T14:38:39.999Z</time>
      </trkpt>
      <trkpt lat="49.61271" lon="3.79182">
        <ele>81.32</ele>
        <time>2022-06-27T14:38:49.999Z</time>
      </trkpt>
      <trkpt lat="49.61271" lon="3.79178">
        <ele>81.08</ele>
        <time>2022-06-27T14:39:00.999Z</time>
      </trkpt>
      <trkpt lat="49.61272" lon="3.7918">
        <ele>80.84</ele>
        <time>2022-06-27T14:39:10.999Z</time>
      </trkpt>
      <trkpt lat="49.61268" lon="3.7918">
        <ele>80.66</ele>
        <time>2022-06-27T14:39:20.999Z</time>
      </trkpt>
      <trkpt lat="49.61266" lon="3.7918">
        <ele>79.63</ele>
        <time>2022-06-27T14:39:30.999Z</time>
      </trkpt>
      <trkpt lat="49.61267" lon="3.7918">
        <ele>76.08</ele>
        <time>2022-06-27T14:40:34.999Z</time>
      </trkpt>
      <trkpt lat="49.61267" lon="3.79176">
        <ele>75.6</ele>
        <time>2022-06-27T14:40:44.999Z</time>
      </trkpt>
      <trkpt lat="49.61267" lon="3.79173">
        <ele>75.05</ele>
        <time>2022-06-27T14:40:54.999Z</time>
      </trkpt>
      <trkpt lat="49.61262" lon="3.79175">
        <ele>74.52</ele>
        <time>2022-06-27T14:41:04.999Z</time>
      </trkpt>
      <trkpt lat="49.6125" lon="3.79182">
        <ele>74.17</ele>
        <time>2022-06-27T14:41:14.999Z</time>
      </trkpt>
      <trkpt lat="49.61243" lon="3.7919">
        <ele>74.25</ele>
        <time>2022-06-27T14:41:24.999Z</time>
      </trkpt>
      <trkpt lat="49.61231" lon="3.79196">
        <ele>74.4</ele>
        <time>2022-06-27T14:41:34.999Z</time>
      </trkpt>
      <trkpt lat="49.61225" lon="3.792">
        <ele>74.26</ele>
        <time>2022-06-27T14:41:44.999Z</time>
      </trkpt>
      <trkpt lat="49.61217" lon="3.79205">
        <ele>74.54</ele>
        <time>2022-06-27T14:41:54.999Z</time>
      </trkpt>
      <trkpt lat="49.61207" lon="3.79213">
        <ele>74.43</ele>
        <time>2022-06-27T14:42:04.999Z</time>
      </trkpt>
      <trkpt lat="49.61192" lon="3.79225">
        <ele>73.95</ele>
        <time>2022-06-27T14:42:14.999Z</time>
      </trkpt>
      <trkpt lat="49.61183" lon="3.79234">
        <ele>73.36</ele>
        <time>2022-06-27T14:42:24.999Z</time>
      </trkpt>
      <trkpt lat="49.61176" lon="3.79237">
        <ele>73.33</ele>
        <time>2022-06-27T14:42:34.999Z</time>
      </trkpt>
      <trkpt lat="49.61166" lon="3.79242">
        <ele>73.11</ele>
        <time>2022-06-27T14:42:44.999Z</time>
      </trkpt>
      <trkpt lat="49.61154" lon="3.79248">
        <ele>72.87</ele>
        <time>2022-06-27T14:42:54.999Z</time>
      </trkpt>
      <trkpt lat="49.6115" lon="3.79248">
        <ele>73.21</ele>
        <time>2022-06-27T14:43:04.999Z</time>
      </trkpt>
      <trkpt lat="49.61142" lon="3.79251">
        <ele>73.66</ele>
        <time>2022-06-27T14:43:14.999Z</time>
      </trkpt>
      <trkpt lat="49.61134" lon="3.79255">
        <ele>74.28</ele>
        <time>2022-06-27T14:43:24.999Z</time>
      </trkpt>
      <trkpt lat="49.61121" lon="3.79269">
        <ele>74.65</ele>
        <time>2022-06-27T14:43:34.999Z</time>
      </trkpt>
      <trkpt lat="49.61115" lon="3.79274">
        <ele>74.78</ele>
        <time>2022-06-27T14:43:44.999Z</time>
      </trkpt>
      <trkpt lat="49.61108" lon="3.79278">
        <ele>74.67</ele>
        <time>2022-06-27T14:43:54.999Z</time>
      </trkpt>
      <trkpt lat="49.61097" lon="3.79287">
        <ele>74.1</ele>
        <time>2022-06-27T14:44:04.999Z</time>
      </trkpt>
      <trkpt lat="49.61084" lon="3.79303">
        <ele>73.27</ele>
        <time>2022-06-27T14:44:14.999Z</time>
      </trkpt>
      <trkpt lat="49.61067" lon="3.79317">
        <ele>72.72</ele>
        <time>2022-06-27T14:44:24.999Z</time>
      </trkpt>
      <trkpt lat="49.61053" lon="3.79323">
        <ele>72.27</ele>
        <time>2022-06-27T14:44:34.999Z</time>
      </trkpt>
      <trkpt lat="49.61043" lon="3.7933">
        <ele>72.15</ele>
        <time>2022-06-27T14:44:44.999Z</time>
      </trkpt>
      <trkpt lat="49.61039" lon="3.79319">
        <ele>72.28</ele>
        <time>2022-06-27T14:44:54.999Z</time>
      </trkpt>
      <trkpt lat="49.61032" lon="3.79317">
        <ele>73</ele>
        <time>2022-06-27T14:45:04.999Z</time>
      </trkpt>
      <trkpt lat="49.61028" lon="3.79325">
        <ele>73.71</ele>
        <time>2022-06-27T14:45:14.999Z</time>
      </trkpt>
      <trkpt lat="49.61015" lon="3.79334">
        <ele>74.47</ele>
        <time>2022-06-27T14:45:24.999Z</time>
      </trkpt>
      <trkpt lat="49.61" lon="3.79344">
        <ele>75.34</ele>
        <time>2022-06-27T14:45:34.999Z</time>
      </trkpt>
      <trkpt lat="49.6099" lon="3.79351">
        <ele>76.2</ele>
        <time>2022-06-27T14:45:44.999Z</time>
      </trkpt>
      <trkpt lat="49.60986" lon="3.79358">
        <ele>76.5</ele>
        <time>2022-06-27T14:45:54.999Z</time>
      </trkpt>
      <trkpt lat="49.60984" lon="3.79361">
        <ele>76.92</ele>
        <time>2022-06-27T14:46:04.999Z</time>
      </trkpt>
      <trkpt lat="49.60978" lon="3.79364">
        <ele>77.14</ele>
        <time>2022-06-27T14:46:14.999Z</time>
      </trkpt>
      <trkpt lat="49.60972" lon="3.79362">
        <ele>77.58</ele>
        <time>2022-06-27T14:46:24.999Z</time>
      </trkpt>
      <trkpt lat="49.60965" lon="3.79369">
        <ele>77.87</ele>
        <time>2022-06-27T14:46:34.999Z</time>
      </trkpt>
      <trkpt lat="49.60959" lon="3.79375">
        <ele>77.79</ele>
        <time>2022-06-27T14:46:44.999Z</time>
      </trkpt>
      <trkpt lat="49.60954" lon="3.79376">
        <ele>77.66</ele>
        <time>2022-06-27T14:46:54.999Z</time>
      </trkpt>
      <trkpt lat="49.60945" lon="3.79379">
        <ele>77.69</ele>
        <time>2022-06-27T14:47:04.999Z</time>
      </trkpt>
      <trkpt lat="49.60937" lon="3.79383">
        <ele>77.65</ele>
        <time>2022-06-27T14:47:14.999Z</time>
      </trkpt>
      <trkpt lat="49.60936" lon="3.79385">
        <ele>78.05</ele>
        <time>2022-06-27T14:47:24.999Z</time>
      </trkpt>
      <trkpt lat="49.6093" lon="3.79396">
        <ele>74.16</ele>
        <time>2022-06-27T14:47:34.999Z</time>
      </trkpt>
      <trkpt lat="49.60928" lon="3.7941">
        <ele>73.96</ele>
        <time>2022-06-27T14:47:44.999Z</time>
      </trkpt>
      <trkpt lat="49.60935" lon="3.79424">
        <ele>73.96</ele>
        <time>2022-06-27T14:47:54.999Z</time>
      </trkpt>
      <trkpt lat="49.60938" lon="3.79441">
        <ele>73.96</ele>
        <time>2022-06-27T14:48:04.999Z</time>
      </trkpt>
      <trkpt lat="49.60938" lon="3.79459">
        <ele>74.16</ele>
        <time>2022-06-27T14:48:14.999Z</time>
      </trkpt>
      <trkpt lat="49.60937" lon="3.79473">
        <ele>73.86</ele>
        <time>2022-06-27T14:48:24.999Z</time>
      </trkpt>
      <trkpt lat="49.60932" lon="3.79491">
        <ele>73.86</ele>
        <time>2022-06-27T14:48:34.999Z</time>
      </trkpt>
      <trkpt lat="49.60933" lon="3.7951">
        <ele>73.86</ele>
        <time>2022-06-27T14:48:44.999Z</time>
      </trkpt>
      <trkpt lat="49.60934" lon="3.79524">
        <ele>73.86</ele>
        <time>2022-06-27T14:48:54.999Z</time>
      </trkpt>
      <trkpt lat="49.60938" lon="3.7954">
        <ele>73.86</ele>
        <time>2022-06-27T14:49:04.999Z</time>
      </trkpt>
      <trkpt lat="49.6094" lon="3.79552">
        <ele>73.86</ele>
        <time>2022-06-27T14:49:14.999Z</time>
      </trkpt>
      <trkpt lat="49.60944" lon="3.79573">
        <ele>73.86</ele>
        <time>2022-06-27T14:49:24.999Z</time>
      </trkpt>
      <trkpt lat="49.60946" lon="3.79587">
        <ele>73.86</ele>
        <time>2022-06-27T14:49:34.999Z</time>
      </trkpt>
      <trkpt lat="49.60948" lon="3.79597">
        <ele>73.86</ele>
        <time>2022-06-27T14:49:44.999Z</time>
      </trkpt>
      <trkpt lat="49.60951" lon="3.79622">
        <ele>73.86</ele>
        <time>2022-06-27T14:49:54.999Z</time>
      </trkpt>
      <trkpt lat="49.60953" lon="3.79642">
        <ele>73.86</ele>
        <time>2022-06-27T14:50:04.999Z</time>
      </trkpt>
      <trkpt lat="49.60958" lon="3.79661">
        <ele>75.62</ele>
        <time>2022-06-27T14:50:14.999Z</time>
      </trkpt>
      <trkpt lat="49.60959" lon="3.79681">
        <ele>75.77</ele>
        <time>2022-06-27T14:50:24.999Z</time>
      </trkpt>
      <trkpt lat="49.60957" lon="3.79695">
        <ele>75.73</ele>
        <time>2022-06-27T14:50:34.999Z</time>
      </trkpt>
      <trkpt lat="49.60959" lon="3.79706">
        <ele>76.07</ele>
        <time>2022-06-27T14:50:44.999Z</time>
      </trkpt>
      <trkpt lat="49.60962" lon="3.79721">
        <ele>76.39</ele>
        <time>2022-06-27T14:50:54.999Z</time>
      </trkpt>
      <trkpt lat="49.60966" lon="3.79734">
        <ele>76.89</ele>
        <time>2022-06-27T14:51:04.999Z</time>
      </trkpt>
      <trkpt lat="49.60967" lon="3.79747">
        <ele>77.16</ele>
        <time>2022-06-27T14:51:14.999Z</time>
      </trkpt>
      <trkpt lat="49.60968" lon="3.79763">
        <ele>77.41</ele>
        <time>2022-06-27T14:51:24.999Z</time>
      </trkpt>
      <trkpt lat="49.60967" lon="3.79779">
        <ele>77.73</ele>
        <time>2022-06-27T14:51:34.999Z</time>
      </trkpt>
      <trkpt lat="49.60971" lon="3.79794">
        <ele>78.4</ele>
        <time>2022-06-27T14:51:45.999Z</time>
      </trkpt>
      <trkpt lat="49.60976" lon="3.79807">
        <ele>79.46</ele>
        <time>2022-06-27T14:51:55.999Z</time>
      </trkpt>
      <trkpt lat="49.6098" lon="3.79823">
        <ele>80.48</ele>
        <time>2022-06-27T14:52:05.999Z</time>
      </trkpt>
      <trkpt lat="49.60975" lon="3.79839">
        <ele>73.92</ele>
        <time>2022-06-27T14:52:15.999Z</time>
      </trkpt>
      <trkpt lat="49.60975" lon="3.79855">
        <ele>73.46</ele>
        <time>2022-06-27T14:52:25.999Z</time>
      </trkpt>
      <trkpt lat="49.60979" lon="3.7987">
        <ele>73.46</ele>
        <time>2022-06-27T14:52:35.999Z</time>
      </trkpt>
      <trkpt lat="49.60983" lon="3.79884">
        <ele>73.46</ele>
        <time>2022-06-27T14:52:45.999Z</time>
      </trkpt>
      <trkpt lat="49.6099" lon="3.79898">
        <ele>73.46</ele>
        <time>2022-06-27T14:52:55.999Z</time>
      </trkpt>
      <trkpt lat="49.60996" lon="3.7991">
        <ele>73.46</ele>
        <time>2022-06-27T14:53:05.999Z</time>
      </trkpt>
      <trkpt lat="49.61002" lon="3.79922">
        <ele>73.46</ele>
        <time>2022-06-27T14:53:15.999Z</time>
      </trkpt>
      <trkpt lat="49.61008" lon="3.79935">
        <ele>73.46</ele>
        <time>2022-06-27T14:53:25.999Z</time>
      </trkpt>
      <trkpt lat="49.61015" lon="3.79948">
        <ele>73.46</ele>
        <time>2022-06-27T14:53:35.999Z</time>
      </trkpt>
      <trkpt lat="49.61022" lon="3.79959">
        <ele>73.46</ele>
        <time>2022-06-27T14:53:45.999Z</time>
      </trkpt>
      <trkpt lat="49.61026" lon="3.79976">
        <ele>72.57</ele>
        <time>2022-06-27T14:53:55.999Z</time>
      </trkpt>
      <trkpt lat="49.61031" lon="3.79996">
        <ele>71.36</ele>
        <time>2022-06-27T14:54:05.999Z</time>
      </trkpt>
      <trkpt lat="49.61032" lon="3.80016">
        <ele>71.36</ele>
        <time>2022-06-27T14:54:15.999Z</time>
      </trkpt>
      <trkpt lat="49.61037" lon="3.80031">
        <ele>72.46</ele>
        <time>2022-06-27T14:54:25.999Z</time>
      </trkpt>
      <trkpt lat="49.61047" lon="3.80036">
        <ele>72.55</ele>
        <time>2022-06-27T14:54:35.999Z</time>
      </trkpt>
      <trkpt lat="49.61051" lon="3.80047">
        <ele>72.56</ele>
        <time>2022-06-27T14:54:45.999Z</time>
      </trkpt>
      <trkpt lat="49.61055" lon="3.8006">
        <ele>72.46</ele>
        <time>2022-06-27T14:54:55.999Z</time>
      </trkpt>
      <trkpt lat="49.6106" lon="3.80075">
        <ele>73.16</ele>
        <time>2022-06-27T14:55:05.507Z</time>
      </trkpt>
      <trkpt lat="49.61066" lon="3.80084">
        <ele>73.16</ele>
        <time>2022-06-27T14:55:14.999Z</time>
      </trkpt>
      <trkpt lat="49.61077" lon="3.80082">
        <ele>73.16</ele>
        <time>2022-06-27T14:55:24.999Z</time>
      </trkpt>
      <trkpt lat="49.61087" lon="3.80078">
        <ele>73.16</ele>
        <time>2022-06-27T14:55:34.999Z</time>
      </trkpt>
      <trkpt lat="49.61085" lon="3.80076">
        <ele>73.16</ele>
        <time>2022-06-27T14:55:44.999Z</time>
      </trkpt>
      <trkpt lat="49.61088" lon="3.80075">
        <ele>73.16</ele>
        <time>2022-06-27T14:55:54.999Z</time>
      </trkpt>
      <trkpt lat="49.61088" lon="3.80074">
        <ele>73.16</ele>
        <time>2022-06-27T14:56:08.999Z</time>
      </trkpt>
      <trkpt lat="49.61099" lon="3.80072">
        <ele>73.16</ele>
        <time>2022-06-27T14:56:18.999Z</time>
      </trkpt>
      <trkpt lat="49.61112" lon="3.8007">
        <ele>73.16</ele>
        <time>2022-06-27T14:56:28.999Z</time>
      </trkpt>
      <trkpt lat="49.6113" lon="3.80068">
        <ele>73.16</ele>
        <time>2022-06-27T14:56:38.999Z</time>
      </trkpt>
      <trkpt lat="49.61142" lon="3.80069">
        <ele>72.86</ele>
        <time>2022-06-27T14:56:48.999Z</time>
      </trkpt>
      <trkpt lat="49.61153" lon="3.80067">
        <ele>72.76</ele>
        <time>2022-06-27T14:56:58.999Z</time>
      </trkpt>
      <trkpt lat="49.61165" lon="3.80067">
        <ele>72.76</ele>
        <time>2022-06-27T14:57:08.999Z</time>
      </trkpt>
      <trkpt lat="49.61174" lon="3.80063">
        <ele>72.76</ele>
        <time>2022-06-27T14:57:18.999Z</time>
      </trkpt>
      <trkpt lat="49.61186" lon="3.80061">
        <ele>72.76</ele>
        <time>2022-06-27T14:57:28.999Z</time>
      </trkpt>
      <trkpt lat="49.61195" lon="3.80066">
        <ele>72.86</ele>
        <time>2022-06-27T14:57:38.999Z</time>
      </trkpt>
      <trkpt lat="49.61204" lon="3.80077">
        <ele>72.86</ele>
        <time>2022-06-27T14:57:48.999Z</time>
      </trkpt>
      <trkpt lat="49.6121" lon="3.8009">
        <ele>72.86</ele>
        <time>2022-06-27T14:57:58.999Z</time>
      </trkpt>
      <trkpt lat="49.61209" lon="3.80107">
        <ele>72.86</ele>
        <time>2022-06-27T14:58:08.999Z</time>
      </trkpt>
      <trkpt lat="49.61207" lon="3.80127">
        <ele>72.86</ele>
        <time>2022-06-27T14:58:18.999Z</time>
      </trkpt>
      <trkpt lat="49.6121" lon="3.80148">
        <ele>72.86</ele>
        <time>2022-06-27T14:58:28.999Z</time>
      </trkpt>
      <trkpt lat="49.61216" lon="3.80166">
        <ele>72.86</ele>
        <time>2022-06-27T14:58:38.999Z</time>
      </trkpt>
      <trkpt lat="49.6122" lon="3.80182">
        <ele>73.56</ele>
        <time>2022-06-27T14:58:48.999Z</time>
      </trkpt>
      <trkpt lat="49.61224" lon="3.80196">
        <ele>73.66</ele>
        <time>2022-06-27T14:58:58.999Z</time>
      </trkpt>
      <trkpt lat="49.61222" lon="3.80211">
        <ele>73.56</ele>
        <time>2022-06-27T14:59:08.999Z</time>
      </trkpt>
      <trkpt lat="49.61214" lon="3.80234">
        <ele>73.75</ele>
        <time>2022-06-27T14:59:18.999Z</time>
      </trkpt>
      <trkpt lat="49.61218" lon="3.80249">
        <ele>73.75</ele>
        <time>2022-06-27T14:59:28.999Z</time>
      </trkpt>
      <trkpt lat="49.61219" lon="3.80261">
        <ele>73.75</ele>
        <time>2022-06-27T14:59:38.999Z</time>
      </trkpt>
      <trkpt lat="49.61218" lon="3.80274">
        <ele>73.75</ele>
        <time>2022-06-27T14:59:48.999Z</time>
      </trkpt>
      <trkpt lat="49.6122" lon="3.80299">
        <ele>73.75</ele>
        <time>2022-06-27T14:59:58.999Z</time>
      </trkpt>
      <trkpt lat="49.61221" lon="3.80318">
        <ele>73.75</ele>
        <time>2022-06-27T15:00:08.999Z</time>
      </trkpt>
      <trkpt lat="49.61222" lon="3.80335">
        <ele>73.75</ele>
        <time>2022-06-27T15:00:18.999Z</time>
      </trkpt>
      <trkpt lat="49.61222" lon="3.80349">
        <ele>73.75</ele>
        <time>2022-06-27T15:00:28.999Z</time>
      </trkpt>
      <trkpt lat="49.61223" lon="3.80354">
        <ele>73.75</ele>
        <time>2022-06-27T15:00:38.999Z</time>
      </trkpt>
      <trkpt lat="49.61219" lon="3.80369">
        <ele>73.75</ele>
        <time>2022-06-27T15:00:48.999Z</time>
      </trkpt>
      <trkpt lat="49.61217" lon="3.80386">
        <ele>73.75</ele>
        <time>2022-06-27T15:00:58.999Z</time>
      </trkpt>
      <trkpt lat="49.61217" lon="3.80406">
        <ele>73.75</ele>
        <time>2022-06-27T15:01:08.999Z</time>
      </trkpt>
      <trkpt lat="49.61219" lon="3.80426">
        <ele>73.75</ele>
        <time>2022-06-27T15:01:18.999Z</time>
      </trkpt>
      <trkpt lat="49.61222" lon="3.80446">
        <ele>73.75</ele>
        <time>2022-06-27T15:01:28.999Z</time>
      </trkpt>
      <trkpt lat="49.61226" lon="3.80464">
        <ele>73.75</ele>
        <time>2022-06-27T15:01:38.999Z</time>
      </trkpt>
      <trkpt lat="49.61226" lon="3.80478">
        <ele>73.75</ele>
        <time>2022-06-27T15:01:48.999Z</time>
      </trkpt>
      <trkpt lat="49.61228" lon="3.8049">
        <ele>74.15</ele>
        <time>2022-06-27T15:01:58.999Z</time>
      </trkpt>
      <trkpt lat="49.61232" lon="3.805">
        <ele>74.15</ele>
        <time>2022-06-27T15:02:08.999Z</time>
      </trkpt>
      <trkpt lat="49.61231" lon="3.80514">
        <ele>74.15</ele>
        <time>2022-06-27T15:02:18.999Z</time>
      </trkpt>
      <trkpt lat="49.61231" lon="3.80533">
        <ele>74.15</ele>
        <time>2022-06-27T15:02:28.999Z</time>
      </trkpt>
      <trkpt lat="49.61228" lon="3.80549">
        <ele>74.15</ele>
        <time>2022-06-27T15:02:38.999Z</time>
      </trkpt>
      <trkpt lat="49.61223" lon="3.80566">
        <ele>74.15</ele>
        <time>2022-06-27T15:02:48.999Z</time>
      </trkpt>
      <trkpt lat="49.61219" lon="3.80584">
        <ele>74.15</ele>
        <time>2022-06-27T15:02:58.999Z</time>
      </trkpt>
      <trkpt lat="49.61214" lon="3.80598">
        <ele>74.15</ele>
        <time>2022-06-27T15:03:08.999Z</time>
      </trkpt>
      <trkpt lat="49.61205" lon="3.8061">
        <ele>74.15</ele>
        <time>2022-06-27T15:03:18.999Z</time>
      </trkpt>
      <trkpt lat="49.61197" lon="3.80624">
        <ele>74.15</ele>
        <time>2022-06-27T15:03:28.999Z</time>
      </trkpt>
      <trkpt lat="49.6119" lon="3.80638">
        <ele>74.15</ele>
        <time>2022-06-27T15:03:38.999Z</time>
      </trkpt>
      <trkpt lat="49.61184" lon="3.80648">
        <ele>74.15</ele>
        <time>2022-06-27T15:03:48.999Z</time>
      </trkpt>
      <trkpt lat="49.61176" lon="3.80649">
        <ele>74.15</ele>
        <time>2022-06-27T15:03:58.999Z</time>
      </trkpt>
      <trkpt lat="49.61168" lon="3.80656">
        <ele>77.32</ele>
        <time>2022-06-27T15:04:08.999Z</time>
      </trkpt>
      <trkpt lat="49.61161" lon="3.80665">
        <ele>77.99</ele>
        <time>2022-06-27T15:04:18.999Z</time>
      </trkpt>
      <trkpt lat="49.61152" lon="3.80674">
        <ele>78.16</ele>
        <time>2022-06-27T15:04:28.999Z</time>
      </trkpt>
      <trkpt lat="49.61148" lon="3.8068">
        <ele>78.34</ele>
        <time>2022-06-27T15:04:39.999Z</time>
      </trkpt>
      <trkpt lat="49.6115" lon="3.80677">
        <ele>78.74</ele>
        <time>2022-06-27T15:04:49.999Z</time>
      </trkpt>
      <trkpt lat="49.61144" lon="3.80675">
        <ele>79.28</ele>
        <time>2022-06-27T15:04:59.999Z</time>
      </trkpt>
      <trkpt lat="49.61131" lon="3.80692">
        <ele>79.35</ele>
        <time>2022-06-27T15:05:09.999Z</time>
      </trkpt>
      <trkpt lat="49.6112" lon="3.80709">
        <ele>79.57</ele>
        <time>2022-06-27T15:05:19.999Z</time>
      </trkpt>
      <trkpt lat="49.61109" lon="3.80719">
        <ele>79.79</ele>
        <time>2022-06-27T15:05:29.999Z</time>
      </trkpt>
      <trkpt lat="49.61109" lon="3.80728">
        <ele>73.76</ele>
        <time>2022-06-27T15:05:39.999Z</time>
      </trkpt>
      <trkpt lat="49.61114" lon="3.80739">
        <ele>73.75</ele>
        <time>2022-06-27T15:05:49.999Z</time>
      </trkpt>
      <trkpt lat="49.61122" lon="3.80751">
        <ele>73.75</ele>
        <time>2022-06-27T15:05:59.999Z</time>
      </trkpt>
      <trkpt lat="49.61125" lon="3.8076">
        <ele>73.95</ele>
        <time>2022-06-27T15:06:09.999Z</time>
      </trkpt>
      <trkpt lat="49.61142" lon="3.80759">
        <ele>73.95</ele>
        <time>2022-06-27T15:06:19.999Z</time>
      </trkpt>
      <trkpt lat="49.61155" lon="3.80754">
        <ele>73.95</ele>
        <time>2022-06-27T15:06:29.999Z</time>
      </trkpt>
      <trkpt lat="49.6117" lon="3.80746">
        <ele>73.95</ele>
        <time>2022-06-27T15:06:39.999Z</time>
      </trkpt>
      <trkpt lat="49.61179" lon="3.8074">
        <ele>73.95</ele>
        <time>2022-06-27T15:06:49.999Z</time>
      </trkpt>
      <trkpt lat="49.61191" lon="3.80741">
        <ele>74.25</ele>
        <time>2022-06-27T15:06:59.999Z</time>
      </trkpt>
      <trkpt lat="49.61204" lon="3.80744">
        <ele>73.88</ele>
        <time>2022-06-27T15:07:09.999Z</time>
      </trkpt>
      <trkpt lat="49.61214" lon="3.80746">
        <ele>73.75</ele>
        <time>2022-06-27T15:07:19.999Z</time>
      </trkpt>
      <trkpt lat="49.61223" lon="3.80747">
        <ele>73.75</ele>
        <time>2022-06-27T15:07:29.999Z</time>
      </trkpt>
      <trkpt lat="49.61224" lon="3.80753">
        <ele>73.75</ele>
        <time>2022-06-27T15:07:39.999Z</time>
      </trkpt>
      <trkpt lat="49.61238" lon="3.80753">
        <ele>74.25</ele>
        <time>2022-06-27T15:07:49.999Z</time>
      </trkpt>
      <trkpt lat="49.61244" lon="3.80751">
        <ele>74.25</ele>
        <time>2022-06-27T15:07:59.999Z</time>
      </trkpt>
      <trkpt lat="49.61255" lon="3.80745">
        <ele>74.25</ele>
        <time>2022-06-27T15:08:09.999Z</time>
      </trkpt>
      <trkpt lat="49.61269" lon="3.80744">
        <ele>74.25</ele>
        <time>2022-06-27T15:08:19.999Z</time>
      </trkpt>
      <trkpt lat="49.6128" lon="3.80743">
        <ele>74.45</ele>
        <time>2022-06-27T15:08:29.999Z</time>
      </trkpt>
      <trkpt lat="49.61291" lon="3.80749">
        <ele>73.75</ele>
        <time>2022-06-27T15:08:39.999Z</time>
      </trkpt>
      <trkpt lat="49.61301" lon="3.8075">
        <ele>73.75</ele>
        <time>2022-06-27T15:08:49.999Z</time>
      </trkpt>
      <trkpt lat="49.61311" lon="3.80747">
        <ele>73.85</ele>
        <time>2022-06-27T15:08:59.999Z</time>
      </trkpt>
      <trkpt lat="49.61322" lon="3.80753">
        <ele>73.85</ele>
        <time>2022-06-27T15:09:09.999Z</time>
      </trkpt>
      <trkpt lat="49.6133" lon="3.80761">
        <ele>73.85</ele>
        <time>2022-06-27T15:09:19.999Z</time>
      </trkpt>
      <trkpt lat="49.6134" lon="3.80765">
        <ele>73.85</ele>
        <time>2022-06-27T15:09:29.999Z</time>
      </trkpt>
      <trkpt lat="49.61352" lon="3.80761">
        <ele>73.85</ele>
        <time>2022-06-27T15:09:39.999Z</time>
      </trkpt>
      <trkpt lat="49.61366" lon="3.80758">
        <ele>73.85</ele>
        <time>2022-06-27T15:09:49.999Z</time>
      </trkpt>
      <trkpt lat="49.61378" lon="3.80757">
        <ele>73.26</ele>
        <time>2022-06-27T15:09:59.999Z</time>
      </trkpt>
      <trkpt lat="49.61381" lon="3.80751">
        <ele>75.91</ele>
        <time>2022-06-27T15:10:09.999Z</time>
      </trkpt>
      <trkpt lat="49.61382" lon="3.80752">
        <ele>73.35</ele>
        <time>2022-06-27T15:10:20.999Z</time>
      </trkpt>
      <trkpt lat="49.61381" lon="3.80753">
        <ele>73.25</ele>
        <time>2022-06-27T15:10:30.999Z</time>
      </trkpt>
      <trkpt lat="49.61381" lon="3.80753">
        <ele>73.25</ele>
        <time>2022-06-27T15:10:35.999Z</time>
      </trkpt>
    </trkseg>
  </trk>
</gpx>